<?xml version="1.0" encoding="UTF-8" standalone="no" ?><gpx xmlns="http://www.topografix.com/GPX/1/1" xmlns:gpxx="http://www.garmin.com/xmlschemas/GpxExtensions/v3" xmlns:wptx1="http://www.garmin.com/xmlschemas/WaypointExtension/v1" xmlns:gpxtpx="http://www.garmin.com/xmlschemas/TrackPointExtension/v1" creator="GuideVTT.com" version="1.1" xmlns:xsi="http://www.w3.org/2001/XMLSchema-instance" xsi:schemaLocation="http://www.topografix.com/GPX/1/1 http://www.topografix.com/GPX/1/1/gpx.xsd http://www.garmin.com/xmlschemas/GpxExtensions/v3 http://www8.garmin.com/xmlschemas/GpxExtensionsv3.xsd http://www.garmin.com/xmlschemas/WaypointExtension/v1 http://www8.garmin.com/xmlschemas/WaypointExtensionv1.xsd http://www.garmin.com/xmlschemas/TrackPointExtension/v1 http://www.garmin.com/xmlschemas/TrackPointExtensionv1.xsd">
<metadata><link href="http://www.garmin.com"><text>Garmin International</text></link><time>2013-06-22T15:13:50Z</time></metadata>
<trk><name>rp2016_52.gpx</name><extensions><gpxx:TrackExtension><gpxx:DisplayColor>Cyan</gpxx:DisplayColor></gpxx:TrackExtension></extensions><trkseg>
<trkpt lat="46.78994" lon="6.52455"><ele></ele><time>2016-11-3T22:10:50Z</time></trkpt>
<trkpt lat="46.79002" lon="6.52428"><ele></ele><time>2016-11-3T22:10:53Z</time></trkpt>
<trkpt lat="46.79004" lon="6.52428"><ele></ele><time>2016-11-3T22:10:56Z</time></trkpt>
<trkpt lat="46.79002" lon="6.52415"><ele></ele><time>2016-11-3T22:10:59Z</time></trkpt>
<trkpt lat="46.79" lon="6.52388"><ele></ele><time>2016-11-3T22:11:2Z</time></trkpt>
<trkpt lat="46.79001" lon="6.52359"><ele></ele><time>2016-11-3T22:11:5Z</time></trkpt>
<trkpt lat="46.79002" lon="6.52347"><ele></ele><time>2016-11-3T22:11:8Z</time></trkpt>
<trkpt lat="46.79003" lon="6.52334"><ele></ele><time>2016-11-3T22:11:11Z</time></trkpt>
<trkpt lat="46.79004" lon="6.52319"><ele></ele><time>2016-11-3T22:11:14Z</time></trkpt>
<trkpt lat="46.79006" lon="6.52312"><ele></ele><time>2016-11-3T22:11:17Z</time></trkpt>
<trkpt lat="46.79014" lon="6.52298"><ele></ele><time>2016-11-3T22:11:20Z</time></trkpt>
<trkpt lat="46.79015" lon="6.52296"><ele></ele><time>2016-11-3T22:11:23Z</time></trkpt>
<trkpt lat="46.79028" lon="6.52274"><ele></ele><time>2016-11-3T22:11:26Z</time></trkpt>
<trkpt lat="46.79041" lon="6.52254"><ele></ele><time>2016-11-3T22:11:29Z</time></trkpt>
<trkpt lat="46.79047" lon="6.52245"><ele></ele><time>2016-11-3T22:11:32Z</time></trkpt>
<trkpt lat="46.79052" lon="6.52235"><ele></ele><time>2016-11-3T22:11:35Z</time></trkpt>
<trkpt lat="46.79066" lon="6.52207"><ele></ele><time>2016-11-3T22:11:38Z</time></trkpt>
<trkpt lat="46.79075" lon="6.52182"><ele></ele><time>2016-11-3T22:11:41Z</time></trkpt>
<trkpt lat="46.79076" lon="6.5218"><ele></ele><time>2016-11-3T22:11:44Z</time></trkpt>
<trkpt lat="46.79086" lon="6.52157"><ele></ele><time>2016-11-3T22:11:47Z</time></trkpt>
<trkpt lat="46.79093" lon="6.52145"><ele></ele><time>2016-11-3T22:11:50Z</time></trkpt>
<trkpt lat="46.79097" lon="6.52135"><ele></ele><time>2016-11-3T22:11:53Z</time></trkpt>
<trkpt lat="46.79105" lon="6.52111"><ele></ele><time>2016-11-3T22:11:56Z</time></trkpt>
<trkpt lat="46.79111" lon="6.52084"><ele></ele><time>2016-11-3T22:11:59Z</time></trkpt>
<trkpt lat="46.79112" lon="6.52058"><ele></ele><time>2016-11-3T22:12:2Z</time></trkpt>
<trkpt lat="46.79113" lon="6.52031"><ele></ele><time>2016-11-3T22:12:5Z</time></trkpt>
<trkpt lat="46.79114" lon="6.52013"><ele></ele><time>2016-11-3T22:12:8Z</time></trkpt>
<trkpt lat="46.79116" lon="6.51984"><ele></ele><time>2016-11-3T22:12:11Z</time></trkpt>
<trkpt lat="46.79116" lon="6.51959"><ele></ele><time>2016-11-3T22:12:14Z</time></trkpt>
<trkpt lat="46.79117" lon="6.51945"><ele></ele><time>2016-11-3T22:12:17Z</time></trkpt>
<trkpt lat="46.79118" lon="6.51935"><ele></ele><time>2016-11-3T22:12:20Z</time></trkpt>
<trkpt lat="46.79119" lon="6.51916"><ele></ele><time>2016-11-3T22:12:23Z</time></trkpt>
<trkpt lat="46.79125" lon="6.51887"><ele></ele><time>2016-11-3T22:12:26Z</time></trkpt>
<trkpt lat="46.79128" lon="6.51883"><ele></ele><time>2016-11-3T22:12:29Z</time></trkpt>
<trkpt lat="46.79137" lon="6.51874"><ele></ele><time>2016-11-3T22:12:32Z</time></trkpt>
<trkpt lat="46.7914" lon="6.51872"><ele></ele><time>2016-11-3T22:12:35Z</time></trkpt>
<trkpt lat="46.79147" lon="6.51866"><ele></ele><time>2016-11-3T22:12:38Z</time></trkpt>
<trkpt lat="46.79158" lon="6.51845"><ele></ele><time>2016-11-3T22:12:41Z</time></trkpt>
<trkpt lat="46.79166" lon="6.51832"><ele></ele><time>2016-11-3T22:12:44Z</time></trkpt>
<trkpt lat="46.7918" lon="6.51811"><ele></ele><time>2016-11-3T22:12:47Z</time></trkpt>
<trkpt lat="46.79192" lon="6.51793"><ele></ele><time>2016-11-3T22:12:50Z</time></trkpt>
<trkpt lat="46.79206" lon="6.51772"><ele></ele><time>2016-11-3T22:12:53Z</time></trkpt>
<trkpt lat="46.79217" lon="6.51749"><ele></ele><time>2016-11-3T22:12:56Z</time></trkpt>
<trkpt lat="46.79217" lon="6.51721"><ele></ele><time>2016-11-3T22:12:59Z</time></trkpt>
<trkpt lat="46.79213" lon="6.51711"><ele></ele><time>2016-11-3T22:13:2Z</time></trkpt>
<trkpt lat="46.79212" lon="6.51708"><ele></ele><time>2016-11-3T22:13:5Z</time></trkpt>
<trkpt lat="46.79202" lon="6.51685"><ele></ele><time>2016-11-3T22:13:8Z</time></trkpt>
<trkpt lat="46.792" lon="6.51679"><ele></ele><time>2016-11-3T22:13:11Z</time></trkpt>
<trkpt lat="46.7919" lon="6.51656"><ele></ele><time>2016-11-3T22:13:14Z</time></trkpt>
<trkpt lat="46.79184" lon="6.5164"><ele></ele><time>2016-11-3T22:13:17Z</time></trkpt>
<trkpt lat="46.79172" lon="6.51619"><ele></ele><time>2016-11-3T22:13:20Z</time></trkpt>
<trkpt lat="46.79161" lon="6.51598"><ele></ele><time>2016-11-3T22:13:23Z</time></trkpt>
<trkpt lat="46.79149" lon="6.51575"><ele></ele><time>2016-11-3T22:13:26Z</time></trkpt>
<trkpt lat="46.79137" lon="6.51552"><ele></ele><time>2016-11-3T22:13:29Z</time></trkpt>
<trkpt lat="46.79126" lon="6.5153"><ele></ele><time>2016-11-3T22:13:32Z</time></trkpt>
<trkpt lat="46.79122" lon="6.51524"><ele></ele><time>2016-11-3T22:13:35Z</time></trkpt>
<trkpt lat="46.79114" lon="6.51516"><ele></ele><time>2016-11-3T22:13:38Z</time></trkpt>
<trkpt lat="46.79092" lon="6.51497"><ele></ele><time>2016-11-3T22:13:41Z</time></trkpt>
<trkpt lat="46.79074" lon="6.51484"><ele></ele><time>2016-11-3T22:13:44Z</time></trkpt>
<trkpt lat="46.79065" lon="6.51472"><ele></ele><time>2016-11-3T22:13:47Z</time></trkpt>
<trkpt lat="46.79055" lon="6.51457"><ele></ele><time>2016-11-3T22:13:50Z</time></trkpt>
<trkpt lat="46.79052" lon="6.51453"><ele></ele><time>2016-11-3T22:13:53Z</time></trkpt>
<trkpt lat="46.79043" lon="6.51443"><ele></ele><time>2016-11-3T22:13:56Z</time></trkpt>
<trkpt lat="46.79035" lon="6.51433"><ele></ele><time>2016-11-3T22:13:59Z</time></trkpt>
<trkpt lat="46.7902" lon="6.51414"><ele></ele><time>2016-11-3T22:14:2Z</time></trkpt>
<trkpt lat="46.79004" lon="6.51398"><ele></ele><time>2016-11-3T22:14:5Z</time></trkpt>
<trkpt lat="46.78988" lon="6.51384"><ele></ele><time>2016-11-3T22:14:8Z</time></trkpt>
<trkpt lat="46.78965" lon="6.51363"><ele></ele><time>2016-11-3T22:14:11Z</time></trkpt>
<trkpt lat="46.78956" lon="6.51353"><ele></ele><time>2016-11-3T22:14:14Z</time></trkpt>
<trkpt lat="46.78941" lon="6.51337"><ele></ele><time>2016-11-3T22:14:17Z</time></trkpt>
<trkpt lat="46.78927" lon="6.51322"><ele></ele><time>2016-11-3T22:14:20Z</time></trkpt>
<trkpt lat="46.78911" lon="6.51307"><ele></ele><time>2016-11-3T22:14:23Z</time></trkpt>
<trkpt lat="46.78895" lon="6.5129"><ele></ele><time>2016-11-3T22:14:26Z</time></trkpt>
<trkpt lat="46.78879" lon="6.51275"><ele></ele><time>2016-11-3T22:14:29Z</time></trkpt>
<trkpt lat="46.78863" lon="6.5126"><ele></ele><time>2016-11-3T22:14:32Z</time></trkpt>
<trkpt lat="46.7884" lon="6.51241"><ele></ele><time>2016-11-3T22:14:35Z</time></trkpt>
<trkpt lat="46.78824" lon="6.51227"><ele></ele><time>2016-11-3T22:14:38Z</time></trkpt>
<trkpt lat="46.78815" lon="6.51216"><ele></ele><time>2016-11-3T22:14:41Z</time></trkpt>
<trkpt lat="46.78802" lon="6.51201"><ele></ele><time>2016-11-3T22:14:44Z</time></trkpt>
<trkpt lat="46.78786" lon="6.51183"><ele></ele><time>2016-11-3T22:14:47Z</time></trkpt>
<trkpt lat="46.78775" lon="6.51171"><ele></ele><time>2016-11-3T22:14:50Z</time></trkpt>
<trkpt lat="46.7876" lon="6.51153"><ele></ele><time>2016-11-3T22:14:53Z</time></trkpt>
<trkpt lat="46.78739" lon="6.51128"><ele></ele><time>2016-11-3T22:14:56Z</time></trkpt>
<trkpt lat="46.78725" lon="6.5111"><ele></ele><time>2016-11-3T22:14:59Z</time></trkpt>
<trkpt lat="46.78713" lon="6.51089"><ele></ele><time>2016-11-3T22:15:2Z</time></trkpt>
<trkpt lat="46.78702" lon="6.51066"><ele></ele><time>2016-11-3T22:15:5Z</time></trkpt>
<trkpt lat="46.78697" lon="6.51039"><ele></ele><time>2016-11-3T22:15:8Z</time></trkpt>
<trkpt lat="46.78685" lon="6.51017"><ele></ele><time>2016-11-3T22:15:11Z</time></trkpt>
<trkpt lat="46.78674" lon="6.50995"><ele></ele><time>2016-11-3T22:15:14Z</time></trkpt>
<trkpt lat="46.7867" lon="6.50986"><ele></ele><time>2016-11-3T22:15:17Z</time></trkpt>
<trkpt lat="46.78666" lon="6.50979"><ele></ele><time>2016-11-3T22:15:20Z</time></trkpt>
<trkpt lat="46.78655" lon="6.50957"><ele></ele><time>2016-11-3T22:15:23Z</time></trkpt>
<trkpt lat="46.78645" lon="6.50934"><ele></ele><time>2016-11-3T22:15:26Z</time></trkpt>
<trkpt lat="46.78634" lon="6.50912"><ele></ele><time>2016-11-3T22:15:29Z</time></trkpt>
<trkpt lat="46.7862" lon="6.50894"><ele></ele><time>2016-11-3T22:15:32Z</time></trkpt>
<trkpt lat="46.78609" lon="6.50879"><ele></ele><time>2016-11-3T22:15:35Z</time></trkpt>
<trkpt lat="46.78598" lon="6.50864"><ele></ele><time>2016-11-3T22:15:38Z</time></trkpt>
<trkpt lat="46.78582" lon="6.50845"><ele></ele><time>2016-11-3T22:15:41Z</time></trkpt>
<trkpt lat="46.78576" lon="6.50834"><ele></ele><time>2016-11-3T22:15:44Z</time></trkpt>
<trkpt lat="46.78571" lon="6.5082"><ele></ele><time>2016-11-3T22:15:47Z</time></trkpt>
<trkpt lat="46.78566" lon="6.50811"><ele></ele><time>2016-11-3T22:15:50Z</time></trkpt>
<trkpt lat="46.78555" lon="6.50801"><ele></ele><time>2016-11-3T22:15:53Z</time></trkpt>
<trkpt lat="46.78551" lon="6.50798"><ele></ele><time>2016-11-3T22:15:56Z</time></trkpt>
<trkpt lat="46.7854" lon="6.50795"><ele></ele><time>2016-11-3T22:15:59Z</time></trkpt>
<trkpt lat="46.78525" lon="6.50781"><ele></ele><time>2016-11-3T22:16:2Z</time></trkpt>
<trkpt lat="46.7851" lon="6.50765"><ele></ele><time>2016-11-3T22:16:5Z</time></trkpt>
<trkpt lat="46.78496" lon="6.50747"><ele></ele><time>2016-11-3T22:16:8Z</time></trkpt>
<trkpt lat="46.78484" lon="6.50727"><ele></ele><time>2016-11-3T22:16:11Z</time></trkpt>
<trkpt lat="46.78478" lon="6.50713"><ele></ele><time>2016-11-3T22:16:14Z</time></trkpt>
<trkpt lat="46.78461" lon="6.50682"><ele></ele><time>2016-11-3T22:16:17Z</time></trkpt>
<trkpt lat="46.78451" lon="6.50666"><ele></ele><time>2016-11-3T22:16:20Z</time></trkpt>
<trkpt lat="46.78441" lon="6.5065"><ele></ele><time>2016-11-3T22:16:23Z</time></trkpt>
<trkpt lat="46.78431" lon="6.50627"><ele></ele><time>2016-11-3T22:16:26Z</time></trkpt>
<trkpt lat="46.78426" lon="6.50601"><ele></ele><time>2016-11-3T22:16:29Z</time></trkpt>
<trkpt lat="46.78425" lon="6.50573"><ele></ele><time>2016-11-3T22:16:32Z</time></trkpt>
<trkpt lat="46.78423" lon="6.50547"><ele></ele><time>2016-11-3T22:16:35Z</time></trkpt>
<trkpt lat="46.78418" lon="6.50519"><ele></ele><time>2016-11-3T22:16:38Z</time></trkpt>
<trkpt lat="46.78407" lon="6.50486"><ele></ele><time>2016-11-3T22:16:41Z</time></trkpt>
<trkpt lat="46.78398" lon="6.50463"><ele></ele><time>2016-11-3T22:16:44Z</time></trkpt>
<trkpt lat="46.78387" lon="6.50441"><ele></ele><time>2016-11-3T22:16:47Z</time></trkpt>
<trkpt lat="46.78378" lon="6.50417"><ele></ele><time>2016-11-3T22:16:50Z</time></trkpt>
<trkpt lat="46.78368" lon="6.50393"><ele></ele><time>2016-11-3T22:16:53Z</time></trkpt>
<trkpt lat="46.7836" lon="6.50383"><ele></ele><time>2016-11-3T22:16:56Z</time></trkpt>
<trkpt lat="46.7834" lon="6.50376"><ele></ele><time>2016-11-3T22:16:59Z</time></trkpt>
<trkpt lat="46.78322" lon="6.50365"><ele></ele><time>2016-11-3T22:17:2Z</time></trkpt>
<trkpt lat="46.78311" lon="6.50351"><ele></ele><time>2016-11-3T22:17:5Z</time></trkpt>
<trkpt lat="46.78306" lon="6.50343"><ele></ele><time>2016-11-3T22:17:8Z</time></trkpt>
<trkpt lat="46.78296" lon="6.50319"><ele></ele><time>2016-11-3T22:17:11Z</time></trkpt>
<trkpt lat="46.78285" lon="6.50298"><ele></ele><time>2016-11-3T22:17:14Z</time></trkpt>
<trkpt lat="46.78272" lon="6.50278"><ele></ele><time>2016-11-3T22:17:17Z</time></trkpt>
<trkpt lat="46.78262" lon="6.50263"><ele></ele><time>2016-11-3T22:17:20Z</time></trkpt>
<trkpt lat="46.7825" lon="6.50244"><ele></ele><time>2016-11-3T22:17:23Z</time></trkpt>
<trkpt lat="46.78235" lon="6.50225"><ele></ele><time>2016-11-3T22:17:26Z</time></trkpt>
<trkpt lat="46.78217" lon="6.50196"><ele></ele><time>2016-11-3T22:17:29Z</time></trkpt>
<trkpt lat="46.78207" lon="6.50181"><ele></ele><time>2016-11-3T22:17:32Z</time></trkpt>
<trkpt lat="46.78192" lon="6.50165"><ele></ele><time>2016-11-3T22:17:35Z</time></trkpt>
<trkpt lat="46.78176" lon="6.50151"><ele></ele><time>2016-11-3T22:17:38Z</time></trkpt>
<trkpt lat="46.7816" lon="6.50137"><ele></ele><time>2016-11-3T22:17:41Z</time></trkpt>
<trkpt lat="46.78145" lon="6.5012"><ele></ele><time>2016-11-3T22:17:44Z</time></trkpt>
<trkpt lat="46.78128" lon="6.50104"><ele></ele><time>2016-11-3T22:17:47Z</time></trkpt>
<trkpt lat="46.78113" lon="6.50089"><ele></ele><time>2016-11-3T22:17:50Z</time></trkpt>
<trkpt lat="46.78097" lon="6.50077"><ele></ele><time>2016-11-3T22:17:53Z</time></trkpt>
<trkpt lat="46.7809" lon="6.50071"><ele></ele><time>2016-11-3T22:17:56Z</time></trkpt>
<trkpt lat="46.78074" lon="6.50056"><ele></ele><time>2016-11-3T22:17:59Z</time></trkpt>
<trkpt lat="46.78061" lon="6.50037"><ele></ele><time>2016-11-3T22:18:2Z</time></trkpt>
<trkpt lat="46.78053" lon="6.50024"><ele></ele><time>2016-11-3T22:18:5Z</time></trkpt>
<trkpt lat="46.78045" lon="6.50011"><ele></ele><time>2016-11-3T22:18:8Z</time></trkpt>
<trkpt lat="46.78031" lon="6.49993"><ele></ele><time>2016-11-3T22:18:11Z</time></trkpt>
<trkpt lat="46.78016" lon="6.49978"><ele></ele><time>2016-11-3T22:18:14Z</time></trkpt>
<trkpt lat="46.77999" lon="6.49967"><ele></ele><time>2016-11-3T22:18:17Z</time></trkpt>
<trkpt lat="46.77982" lon="6.49957"><ele></ele><time>2016-11-3T22:18:20Z</time></trkpt>
<trkpt lat="46.77964" lon="6.49947"><ele></ele><time>2016-11-3T22:18:23Z</time></trkpt>
<trkpt lat="46.77952" lon="6.49925"><ele></ele><time>2016-11-3T22:18:26Z</time></trkpt>
<trkpt lat="46.7795" lon="6.49916"><ele></ele><time>2016-11-3T22:18:29Z</time></trkpt>
<trkpt lat="46.77942" lon="6.49893"><ele></ele><time>2016-11-3T22:18:32Z</time></trkpt>
<trkpt lat="46.77928" lon="6.49876"><ele></ele><time>2016-11-3T22:18:35Z</time></trkpt>
<trkpt lat="46.77921" lon="6.49868"><ele></ele><time>2016-11-3T22:18:38Z</time></trkpt>
<trkpt lat="46.77906" lon="6.49851"><ele></ele><time>2016-11-3T22:18:41Z</time></trkpt>
<trkpt lat="46.77896" lon="6.49838"><ele></ele><time>2016-11-3T22:18:44Z</time></trkpt>
<trkpt lat="46.77878" lon="6.4981"><ele></ele><time>2016-11-3T22:18:47Z</time></trkpt>
<trkpt lat="46.77865" lon="6.49789"><ele></ele><time>2016-11-3T22:18:50Z</time></trkpt>
<trkpt lat="46.77848" lon="6.49779"><ele></ele><time>2016-11-3T22:18:53Z</time></trkpt>
<trkpt lat="46.77831" lon="6.49764"><ele></ele><time>2016-11-3T22:18:56Z</time></trkpt>
<trkpt lat="46.77819" lon="6.49751"><ele></ele><time>2016-11-3T22:18:59Z</time></trkpt>
<trkpt lat="46.77817" lon="6.49747"><ele></ele><time>2016-11-3T22:19:2Z</time></trkpt>
<trkpt lat="46.77815" lon="6.49743"><ele></ele><time>2016-11-3T22:19:5Z</time></trkpt>
<trkpt lat="46.77815" lon="6.49743"><ele></ele><time>2016-11-3T22:19:8Z</time></trkpt>
<trkpt lat="46.77816" lon="6.4974"><ele></ele><time>2016-11-3T22:19:11Z</time></trkpt>
<trkpt lat="46.77817" lon="6.49741"><ele></ele><time>2016-11-3T22:19:14Z</time></trkpt>
<trkpt lat="46.77818" lon="6.49743"><ele></ele><time>2016-11-3T22:19:17Z</time></trkpt>
<trkpt lat="46.77813" lon="6.49747"><ele></ele><time>2016-11-3T22:19:20Z</time></trkpt>
<trkpt lat="46.77816" lon="6.49743"><ele></ele><time>2016-11-3T22:19:23Z</time></trkpt>
<trkpt lat="46.77817" lon="6.49742"><ele></ele><time>2016-11-3T22:19:26Z</time></trkpt>
<trkpt lat="46.77812" lon="6.49744"><ele></ele><time>2016-11-3T22:19:29Z</time></trkpt>
<trkpt lat="46.77817" lon="6.49742"><ele></ele><time>2016-11-3T22:19:32Z</time></trkpt>
<trkpt lat="46.77817" lon="6.49743"><ele></ele><time>2016-11-3T22:19:35Z</time></trkpt>
<trkpt lat="46.77817" lon="6.49742"><ele></ele><time>2016-11-3T22:19:38Z</time></trkpt>
<trkpt lat="46.77817" lon="6.49742"><ele></ele><time>2016-11-3T22:19:41Z</time></trkpt>
<trkpt lat="46.77817" lon="6.49741"><ele></ele><time>2016-11-3T22:19:44Z</time></trkpt>
<trkpt lat="46.77817" lon="6.49742"><ele></ele><time>2016-11-3T22:19:47Z</time></trkpt>
<trkpt lat="46.77817" lon="6.49741"><ele></ele><time>2016-11-3T22:19:50Z</time></trkpt>
<trkpt lat="46.77817" lon="6.49741"><ele></ele><time>2016-11-3T22:19:53Z</time></trkpt>
<trkpt lat="46.77817" lon="6.49741"><ele></ele><time>2016-11-3T22:19:56Z</time></trkpt>
<trkpt lat="46.77817" lon="6.49742"><ele></ele><time>2016-11-3T22:19:59Z</time></trkpt>
<trkpt lat="46.77817" lon="6.49742"><ele></ele><time>2016-11-3T22:20:2Z</time></trkpt>
<trkpt lat="46.77818" lon="6.49742"><ele></ele><time>2016-11-3T22:20:5Z</time></trkpt>
<trkpt lat="46.77818" lon="6.49743"><ele></ele><time>2016-11-3T22:20:8Z</time></trkpt>
<trkpt lat="46.77818" lon="6.49743"><ele></ele><time>2016-11-3T22:20:11Z</time></trkpt>
<trkpt lat="46.77818" lon="6.49741"><ele></ele><time>2016-11-3T22:20:14Z</time></trkpt>
<trkpt lat="46.77819" lon="6.49741"><ele></ele><time>2016-11-3T22:20:17Z</time></trkpt>
<trkpt lat="46.77819" lon="6.49742"><ele></ele><time>2016-11-3T22:20:20Z</time></trkpt>
<trkpt lat="46.77818" lon="6.49743"><ele></ele><time>2016-11-3T22:20:23Z</time></trkpt>
<trkpt lat="46.77818" lon="6.49743"><ele></ele><time>2016-11-3T22:20:26Z</time></trkpt>
<trkpt lat="46.77817" lon="6.49743"><ele></ele><time>2016-11-3T22:20:29Z</time></trkpt>
<trkpt lat="46.77816" lon="6.49744"><ele></ele><time>2016-11-3T22:20:32Z</time></trkpt>
<trkpt lat="46.77817" lon="6.49745"><ele></ele><time>2016-11-3T22:20:35Z</time></trkpt>
<trkpt lat="46.77816" lon="6.49745"><ele></ele><time>2016-11-3T22:20:38Z</time></trkpt>
<trkpt lat="46.77813" lon="6.49743"><ele></ele><time>2016-11-3T22:20:41Z</time></trkpt>
<trkpt lat="46.77809" lon="6.4974"><ele></ele><time>2016-11-3T22:20:44Z</time></trkpt>
<trkpt lat="46.77806" lon="6.49731"><ele></ele><time>2016-11-3T22:20:47Z</time></trkpt>
<trkpt lat="46.77805" lon="6.49727"><ele></ele><time>2016-11-3T22:20:50Z</time></trkpt>
<trkpt lat="46.77799" lon="6.49716"><ele></ele><time>2016-11-3T22:20:53Z</time></trkpt>
<trkpt lat="46.77797" lon="6.49712"><ele></ele><time>2016-11-3T22:20:56Z</time></trkpt>
<trkpt lat="46.77793" lon="6.49705"><ele></ele><time>2016-11-3T22:20:59Z</time></trkpt>
<trkpt lat="46.77792" lon="6.49703"><ele></ele><time>2016-11-3T22:21:2Z</time></trkpt>
<trkpt lat="46.77788" lon="6.49697"><ele></ele><time>2016-11-3T22:21:5Z</time></trkpt>
<trkpt lat="46.77779" lon="6.49685"><ele></ele><time>2016-11-3T22:21:8Z</time></trkpt>
<trkpt lat="46.77778" lon="6.49683"><ele></ele><time>2016-11-3T22:21:11Z</time></trkpt>
<trkpt lat="46.77776" lon="6.49679"><ele></ele><time>2016-11-3T22:21:14Z</time></trkpt>
<trkpt lat="46.77771" lon="6.49673"><ele></ele><time>2016-11-3T22:21:17Z</time></trkpt>
<trkpt lat="46.77767" lon="6.49666"><ele></ele><time>2016-11-3T22:21:20Z</time></trkpt>
<trkpt lat="46.77764" lon="6.49662"><ele></ele><time>2016-11-3T22:21:23Z</time></trkpt>
<trkpt lat="46.77753" lon="6.49639"><ele></ele><time>2016-11-3T22:21:26Z</time></trkpt>
<trkpt lat="46.77751" lon="6.49636"><ele></ele><time>2016-11-3T22:21:29Z</time></trkpt>
<trkpt lat="46.77748" lon="6.49632"><ele></ele><time>2016-11-3T22:21:32Z</time></trkpt>
<trkpt lat="46.77747" lon="6.4963"><ele></ele><time>2016-11-3T22:21:35Z</time></trkpt>
<trkpt lat="46.77738" lon="6.49607"><ele></ele><time>2016-11-3T22:21:38Z</time></trkpt>
<trkpt lat="46.77731" lon="6.49584"><ele></ele><time>2016-11-3T22:21:41Z</time></trkpt>
<trkpt lat="46.77726" lon="6.49552"><ele></ele><time>2016-11-3T22:21:44Z</time></trkpt>
<trkpt lat="46.7772" lon="6.49526"><ele></ele><time>2016-11-3T22:21:47Z</time></trkpt>
<trkpt lat="46.77715" lon="6.49501"><ele></ele><time>2016-11-3T22:21:50Z</time></trkpt>
<trkpt lat="46.77709" lon="6.49474"><ele></ele><time>2016-11-3T22:21:53Z</time></trkpt>
<trkpt lat="46.77703" lon="6.49447"><ele></ele><time>2016-11-3T22:21:56Z</time></trkpt>
<trkpt lat="46.77703" lon="6.49444"><ele></ele><time>2016-11-3T22:21:59Z</time></trkpt>
<trkpt lat="46.77702" lon="6.49442"><ele></ele><time>2016-11-3T22:22:2Z</time></trkpt>
<trkpt lat="46.77699" lon="6.49427"><ele></ele><time>2016-11-3T22:22:5Z</time></trkpt>
<trkpt lat="46.77691" lon="6.49411"><ele></ele><time>2016-11-3T22:22:8Z</time></trkpt>
<trkpt lat="46.77682" lon="6.49388"><ele></ele><time>2016-11-3T22:22:11Z</time></trkpt>
<trkpt lat="46.77675" lon="6.49362"><ele></ele><time>2016-11-3T22:22:14Z</time></trkpt>
<trkpt lat="46.7767" lon="6.49341"><ele></ele><time>2016-11-3T22:22:17Z</time></trkpt>
<trkpt lat="46.77663" lon="6.49316"><ele></ele><time>2016-11-3T22:22:20Z</time></trkpt>
<trkpt lat="46.77656" lon="6.49291"><ele></ele><time>2016-11-3T22:22:23Z</time></trkpt>
<trkpt lat="46.77646" lon="6.49267"><ele></ele><time>2016-11-3T22:22:26Z</time></trkpt>
<trkpt lat="46.77644" lon="6.49259"><ele></ele><time>2016-11-3T22:22:29Z</time></trkpt>
<trkpt lat="46.77638" lon="6.49232"><ele></ele><time>2016-11-3T22:22:32Z</time></trkpt>
<trkpt lat="46.77629" lon="6.49209"><ele></ele><time>2016-11-3T22:22:35Z</time></trkpt>
<trkpt lat="46.7762" lon="6.49186"><ele></ele><time>2016-11-3T22:22:38Z</time></trkpt>
<trkpt lat="46.77609" lon="6.49165"><ele></ele><time>2016-11-3T22:22:41Z</time></trkpt>
<trkpt lat="46.77594" lon="6.49148"><ele></ele><time>2016-11-3T22:22:44Z</time></trkpt>
<trkpt lat="46.77578" lon="6.49134"><ele></ele><time>2016-11-3T22:22:47Z</time></trkpt>
<trkpt lat="46.77565" lon="6.49114"><ele></ele><time>2016-11-3T22:22:50Z</time></trkpt>
<trkpt lat="46.77555" lon="6.49091"><ele></ele><time>2016-11-3T22:22:53Z</time></trkpt>
<trkpt lat="46.77536" lon="6.49063"><ele></ele><time>2016-11-3T22:22:56Z</time></trkpt>
<trkpt lat="46.77533" lon="6.49059"><ele></ele><time>2016-11-3T22:22:59Z</time></trkpt>
<trkpt lat="46.77529" lon="6.4905"><ele></ele><time>2016-11-3T22:23:2Z</time></trkpt>
<trkpt lat="46.77517" lon="6.49029"><ele></ele><time>2016-11-3T22:23:5Z</time></trkpt>
<trkpt lat="46.77505" lon="6.49006"><ele></ele><time>2016-11-3T22:23:8Z</time></trkpt>
<trkpt lat="46.77493" lon="6.48984"><ele></ele><time>2016-11-3T22:23:11Z</time></trkpt>
<trkpt lat="46.77485" lon="6.48973"><ele></ele><time>2016-11-3T22:23:14Z</time></trkpt>
<trkpt lat="46.77471" lon="6.48955"><ele></ele><time>2016-11-3T22:23:17Z</time></trkpt>
<trkpt lat="46.77459" lon="6.48938"><ele></ele><time>2016-11-3T22:23:20Z</time></trkpt>
<trkpt lat="46.77453" lon="6.48928"><ele></ele><time>2016-11-3T22:23:23Z</time></trkpt>
<trkpt lat="46.7744" lon="6.4891"><ele></ele><time>2016-11-3T22:23:26Z</time></trkpt>
<trkpt lat="46.77428" lon="6.48888"><ele></ele><time>2016-11-3T22:23:29Z</time></trkpt>
<trkpt lat="46.77418" lon="6.48869"><ele></ele><time>2016-11-3T22:23:32Z</time></trkpt>
<trkpt lat="46.77412" lon="6.48863"><ele></ele><time>2016-11-3T22:23:35Z</time></trkpt>
<trkpt lat="46.77407" lon="6.48851"><ele></ele><time>2016-11-3T22:23:38Z</time></trkpt>
<trkpt lat="46.77402" lon="6.48839"><ele></ele><time>2016-11-3T22:23:41Z</time></trkpt>
<trkpt lat="46.77393" lon="6.48816"><ele></ele><time>2016-11-3T22:23:44Z</time></trkpt>
<trkpt lat="46.77388" lon="6.4881"><ele></ele><time>2016-11-3T22:23:47Z</time></trkpt>
<trkpt lat="46.77384" lon="6.48795"><ele></ele><time>2016-11-3T22:23:50Z</time></trkpt>
<trkpt lat="46.77383" lon="6.4879"><ele></ele><time>2016-11-3T22:23:53Z</time></trkpt>
<trkpt lat="46.77381" lon="6.48783"><ele></ele><time>2016-11-3T22:23:56Z</time></trkpt>
<trkpt lat="46.77378" lon="6.48776"><ele></ele><time>2016-11-3T22:23:59Z</time></trkpt>
<trkpt lat="46.77377" lon="6.48775"><ele></ele><time>2016-11-3T22:24:2Z</time></trkpt>
<trkpt lat="46.77373" lon="6.48764"><ele></ele><time>2016-11-3T22:24:5Z</time></trkpt>
<trkpt lat="46.77361" lon="6.48744"><ele></ele><time>2016-11-3T22:24:8Z</time></trkpt>
<trkpt lat="46.77355" lon="6.48735"><ele></ele><time>2016-11-3T22:24:11Z</time></trkpt>
<trkpt lat="46.77342" lon="6.48716"><ele></ele><time>2016-11-3T22:24:14Z</time></trkpt>
<trkpt lat="46.7734" lon="6.48707"><ele></ele><time>2016-11-3T22:24:17Z</time></trkpt>
<trkpt lat="46.77331" lon="6.48683"><ele></ele><time>2016-11-3T22:24:20Z</time></trkpt>
<trkpt lat="46.77326" lon="6.48664"><ele></ele><time>2016-11-3T22:24:23Z</time></trkpt>
<trkpt lat="46.77318" lon="6.4866"><ele></ele><time>2016-11-3T22:24:26Z</time></trkpt>
<trkpt lat="46.77318" lon="6.4866"><ele></ele><time>2016-11-3T22:24:29Z</time></trkpt>
<trkpt lat="46.77318" lon="6.4866"><ele></ele><time>2016-11-3T22:24:32Z</time></trkpt>
<trkpt lat="46.77318" lon="6.48662"><ele></ele><time>2016-11-3T22:24:35Z</time></trkpt>
<trkpt lat="46.77314" lon="6.48652"><ele></ele><time>2016-11-3T22:24:38Z</time></trkpt>
<trkpt lat="46.77303" lon="6.4863"><ele></ele><time>2016-11-3T22:24:41Z</time></trkpt>
<trkpt lat="46.77297" lon="6.4862"><ele></ele><time>2016-11-3T22:24:44Z</time></trkpt>
<trkpt lat="46.77295" lon="6.48616"><ele></ele><time>2016-11-3T22:24:47Z</time></trkpt>
<trkpt lat="46.77291" lon="6.48608"><ele></ele><time>2016-11-3T22:24:50Z</time></trkpt>
<trkpt lat="46.77288" lon="6.48604"><ele></ele><time>2016-11-3T22:24:53Z</time></trkpt>
<trkpt lat="46.77283" lon="6.486"><ele></ele><time>2016-11-3T22:24:56Z</time></trkpt>
<trkpt lat="46.77271" lon="6.48591"><ele></ele><time>2016-11-3T22:24:59Z</time></trkpt>
<trkpt lat="46.77258" lon="6.48583"><ele></ele><time>2016-11-3T22:25:2Z</time></trkpt>
<trkpt lat="46.77244" lon="6.48566"><ele></ele><time>2016-11-3T22:25:5Z</time></trkpt>
<trkpt lat="46.77233" lon="6.48556"><ele></ele><time>2016-11-3T22:25:8Z</time></trkpt>
<trkpt lat="46.77215" lon="6.48547"><ele></ele><time>2016-11-3T22:25:11Z</time></trkpt>
<trkpt lat="46.77198" lon="6.4852"><ele></ele><time>2016-11-3T22:25:14Z</time></trkpt>
<trkpt lat="46.77186" lon="6.48517"><ele></ele><time>2016-11-3T22:25:17Z</time></trkpt>
<trkpt lat="46.77167" lon="6.4852"><ele></ele><time>2016-11-3T22:25:20Z</time></trkpt>
<trkpt lat="46.77149" lon="6.48519"><ele></ele><time>2016-11-3T22:25:23Z</time></trkpt>
<trkpt lat="46.7713" lon="6.48514"><ele></ele><time>2016-11-3T22:25:26Z</time></trkpt>
<trkpt lat="46.77105" lon="6.48505"><ele></ele><time>2016-11-3T22:25:29Z</time></trkpt>
<trkpt lat="46.77085" lon="6.48498"><ele></ele><time>2016-11-3T22:25:32Z</time></trkpt>
<trkpt lat="46.77068" lon="6.48488"><ele></ele><time>2016-11-3T22:25:35Z</time></trkpt>
<trkpt lat="46.7705" lon="6.48478"><ele></ele><time>2016-11-3T22:25:38Z</time></trkpt>
<trkpt lat="46.77033" lon="6.48464"><ele></ele><time>2016-11-3T22:25:41Z</time></trkpt>
<trkpt lat="46.77016" lon="6.48452"><ele></ele><time>2016-11-3T22:25:44Z</time></trkpt>
<trkpt lat="46.76999" lon="6.4844"><ele></ele><time>2016-11-3T22:25:47Z</time></trkpt>
<trkpt lat="46.76982" lon="6.48434"><ele></ele><time>2016-11-3T22:25:50Z</time></trkpt>
<trkpt lat="46.7696" lon="6.48428"><ele></ele><time>2016-11-3T22:25:53Z</time></trkpt>
<trkpt lat="46.76941" lon="6.48423"><ele></ele><time>2016-11-3T22:25:56Z</time></trkpt>
<trkpt lat="46.76925" lon="6.48412"><ele></ele><time>2016-11-3T22:25:59Z</time></trkpt>
<trkpt lat="46.76915" lon="6.48401"><ele></ele><time>2016-11-3T22:26:2Z</time></trkpt>
<trkpt lat="46.76906" lon="6.48395"><ele></ele><time>2016-11-3T22:26:5Z</time></trkpt>
<trkpt lat="46.76891" lon="6.48381"><ele></ele><time>2016-11-3T22:26:8Z</time></trkpt>
<trkpt lat="46.76871" lon="6.48357"><ele></ele><time>2016-11-3T22:26:11Z</time></trkpt>
<trkpt lat="46.76858" lon="6.48337"><ele></ele><time>2016-11-3T22:26:14Z</time></trkpt>
<trkpt lat="46.76851" lon="6.48323"><ele></ele><time>2016-11-3T22:26:17Z</time></trkpt>
<trkpt lat="46.7684" lon="6.483"><ele></ele><time>2016-11-3T22:26:20Z</time></trkpt>
<trkpt lat="46.7683" lon="6.48278"><ele></ele><time>2016-11-3T22:26:23Z</time></trkpt>
<trkpt lat="46.7682" lon="6.48254"><ele></ele><time>2016-11-3T22:26:26Z</time></trkpt>
<trkpt lat="46.76811" lon="6.4823"><ele></ele><time>2016-11-3T22:26:29Z</time></trkpt>
<trkpt lat="46.76796" lon="6.48199"><ele></ele><time>2016-11-3T22:26:32Z</time></trkpt>
<trkpt lat="46.76784" lon="6.48177"><ele></ele><time>2016-11-3T22:26:35Z</time></trkpt>
<trkpt lat="46.76772" lon="6.48155"><ele></ele><time>2016-11-3T22:26:38Z</time></trkpt>
<trkpt lat="46.76759" lon="6.48135"><ele></ele><time>2016-11-3T22:26:41Z</time></trkpt>
<trkpt lat="46.76754" lon="6.48128"><ele></ele><time>2016-11-3T22:26:44Z</time></trkpt>
<trkpt lat="46.76749" lon="6.48122"><ele></ele><time>2016-11-3T22:26:47Z</time></trkpt>
<trkpt lat="46.7674" lon="6.48117"><ele></ele><time>2016-11-3T22:26:50Z</time></trkpt>
<trkpt lat="46.76723" lon="6.48105"><ele></ele><time>2016-11-3T22:26:53Z</time></trkpt>
<trkpt lat="46.76705" lon="6.481"><ele></ele><time>2016-11-3T22:26:56Z</time></trkpt>
<trkpt lat="46.76683" lon="6.48092"><ele></ele><time>2016-11-3T22:26:59Z</time></trkpt>
<trkpt lat="46.76669" lon="6.48087"><ele></ele><time>2016-11-3T22:27:2Z</time></trkpt>
<trkpt lat="46.76651" lon="6.48083"><ele></ele><time>2016-11-3T22:27:5Z</time></trkpt>
<trkpt lat="46.76641" lon="6.48081"><ele></ele><time>2016-11-3T22:27:8Z</time></trkpt>
<trkpt lat="46.76633" lon="6.48083"><ele></ele><time>2016-11-3T22:27:11Z</time></trkpt>
<trkpt lat="46.76628" lon="6.48084"><ele></ele><time>2016-11-3T22:27:14Z</time></trkpt>
<trkpt lat="46.76614" lon="6.48085"><ele></ele><time>2016-11-3T22:27:17Z</time></trkpt>
<trkpt lat="46.76596" lon="6.48086"><ele></ele><time>2016-11-3T22:27:20Z</time></trkpt>
<trkpt lat="46.76579" lon="6.48083"><ele></ele><time>2016-11-3T22:27:23Z</time></trkpt>
<trkpt lat="46.76569" lon="6.48083"><ele></ele><time>2016-11-3T22:27:26Z</time></trkpt>
<trkpt lat="46.76563" lon="6.48077"><ele></ele><time>2016-11-3T22:27:29Z</time></trkpt>
<trkpt lat="46.7656" lon="6.48075"><ele></ele><time>2016-11-3T22:27:32Z</time></trkpt>
<trkpt lat="46.7656" lon="6.48076"><ele></ele><time>2016-11-3T22:27:35Z</time></trkpt>
<trkpt lat="46.7656" lon="6.48075"><ele></ele><time>2016-11-3T22:27:38Z</time></trkpt>
<trkpt lat="46.76559" lon="6.48075"><ele></ele><time>2016-11-3T22:27:41Z</time></trkpt>
<trkpt lat="46.76559" lon="6.48075"><ele></ele><time>2016-11-3T22:27:44Z</time></trkpt>
<trkpt lat="46.76551" lon="6.48069"><ele></ele><time>2016-11-3T22:27:47Z</time></trkpt>
<trkpt lat="46.76535" lon="6.48055"><ele></ele><time>2016-11-3T22:27:50Z</time></trkpt>
<trkpt lat="46.76518" lon="6.48045"><ele></ele><time>2016-11-3T22:27:53Z</time></trkpt>
<trkpt lat="46.76515" lon="6.48042"><ele></ele><time>2016-11-3T22:27:56Z</time></trkpt>
<trkpt lat="46.76512" lon="6.48038"><ele></ele><time>2016-11-3T22:27:59Z</time></trkpt>
<trkpt lat="46.7651" lon="6.48036"><ele></ele><time>2016-11-3T22:28:2Z</time></trkpt>
<trkpt lat="46.76494" lon="6.48022"><ele></ele><time>2016-11-3T22:28:5Z</time></trkpt>
<trkpt lat="46.76487" lon="6.48011"><ele></ele><time>2016-11-3T22:28:8Z</time></trkpt>
<trkpt lat="46.76476" lon="6.47988"><ele></ele><time>2016-11-3T22:28:11Z</time></trkpt>
<trkpt lat="46.76465" lon="6.47969"><ele></ele><time>2016-11-3T22:28:14Z</time></trkpt>
<trkpt lat="46.76453" lon="6.47947"><ele></ele><time>2016-11-3T22:28:17Z</time></trkpt>
<trkpt lat="46.76441" lon="6.47925"><ele></ele><time>2016-11-3T22:28:20Z</time></trkpt>
<trkpt lat="46.76428" lon="6.47904"><ele></ele><time>2016-11-3T22:28:23Z</time></trkpt>
<trkpt lat="46.76416" lon="6.47889"><ele></ele><time>2016-11-3T22:28:26Z</time></trkpt>
<trkpt lat="46.76404" lon="6.4787"><ele></ele><time>2016-11-3T22:28:29Z</time></trkpt>
<trkpt lat="46.7639" lon="6.47851"><ele></ele><time>2016-11-3T22:28:32Z</time></trkpt>
<trkpt lat="46.76377" lon="6.47831"><ele></ele><time>2016-11-3T22:28:35Z</time></trkpt>
<trkpt lat="46.76373" lon="6.47815"><ele></ele><time>2016-11-3T22:28:38Z</time></trkpt>
<trkpt lat="46.76357" lon="6.47786"><ele></ele><time>2016-11-3T22:28:41Z</time></trkpt>
<trkpt lat="46.76356" lon="6.47784"><ele></ele><time>2016-11-3T22:28:44Z</time></trkpt>
<trkpt lat="46.76349" lon="6.47771"><ele></ele><time>2016-11-3T22:28:47Z</time></trkpt>
<trkpt lat="46.76343" lon="6.4776"><ele></ele><time>2016-11-3T22:28:50Z</time></trkpt>
<trkpt lat="46.76332" lon="6.47737"><ele></ele><time>2016-11-3T22:28:53Z</time></trkpt>
<trkpt lat="46.76329" lon="6.4773"><ele></ele><time>2016-11-3T22:28:56Z</time></trkpt>
<trkpt lat="46.76318" lon="6.47707"><ele></ele><time>2016-11-3T22:28:59Z</time></trkpt>
<trkpt lat="46.7631" lon="6.47683"><ele></ele><time>2016-11-3T22:29:2Z</time></trkpt>
<trkpt lat="46.76302" lon="6.47657"><ele></ele><time>2016-11-3T22:29:5Z</time></trkpt>
<trkpt lat="46.7629" lon="6.47626"><ele></ele><time>2016-11-3T22:29:8Z</time></trkpt>
<trkpt lat="46.76286" lon="6.47612"><ele></ele><time>2016-11-3T22:29:11Z</time></trkpt>
<trkpt lat="46.7628" lon="6.47601"><ele></ele><time>2016-11-3T22:29:14Z</time></trkpt>
<trkpt lat="46.76269" lon="6.47579"><ele></ele><time>2016-11-3T22:29:17Z</time></trkpt>
<trkpt lat="46.76258" lon="6.47556"><ele></ele><time>2016-11-3T22:29:20Z</time></trkpt>
<trkpt lat="46.76246" lon="6.47536"><ele></ele><time>2016-11-3T22:29:23Z</time></trkpt>
<trkpt lat="46.76229" lon="6.47508"><ele></ele><time>2016-11-3T22:29:26Z</time></trkpt>
<trkpt lat="46.76217" lon="6.47489"><ele></ele><time>2016-11-3T22:29:29Z</time></trkpt>
<trkpt lat="46.76208" lon="6.47465"><ele></ele><time>2016-11-3T22:29:32Z</time></trkpt>
<trkpt lat="46.76201" lon="6.47439"><ele></ele><time>2016-11-3T22:29:35Z</time></trkpt>
<trkpt lat="46.76194" lon="6.47413"><ele></ele><time>2016-11-3T22:29:38Z</time></trkpt>
<trkpt lat="46.76185" lon="6.47389"><ele></ele><time>2016-11-3T22:29:41Z</time></trkpt>
<trkpt lat="46.76172" lon="6.4736"><ele></ele><time>2016-11-3T22:29:44Z</time></trkpt>
<trkpt lat="46.76168" lon="6.47355"><ele></ele><time>2016-11-3T22:29:47Z</time></trkpt>
<trkpt lat="46.76164" lon="6.47337"><ele></ele><time>2016-11-3T22:29:50Z</time></trkpt>
<trkpt lat="46.76176" lon="6.47332"><ele></ele><time>2016-11-3T22:29:53Z</time></trkpt>
<trkpt lat="46.76193" lon="6.4734"><ele></ele><time>2016-11-3T22:29:56Z</time></trkpt>
<trkpt lat="46.7621" lon="6.47354"><ele></ele><time>2016-11-3T22:29:59Z</time></trkpt>
<trkpt lat="46.76226" lon="6.47371"><ele></ele><time>2016-11-3T22:30:2Z</time></trkpt>
<trkpt lat="46.7624" lon="6.47383"><ele></ele><time>2016-11-3T22:30:5Z</time></trkpt>
<trkpt lat="46.76242" lon="6.47387"><ele></ele><time>2016-11-3T22:30:8Z</time></trkpt>
<trkpt lat="46.76249" lon="6.4739"><ele></ele><time>2016-11-3T22:30:11Z</time></trkpt>
<trkpt lat="46.76267" lon="6.47397"><ele></ele><time>2016-11-3T22:30:14Z</time></trkpt>
<trkpt lat="46.76286" lon="6.47395"><ele></ele><time>2016-11-3T22:30:17Z</time></trkpt>
<trkpt lat="46.76304" lon="6.47388"><ele></ele><time>2016-11-3T22:30:20Z</time></trkpt>
<trkpt lat="46.76305" lon="6.47387"><ele></ele><time>2016-11-3T22:30:23Z</time></trkpt>
<trkpt lat="46.76318" lon="6.47385"><ele></ele><time>2016-11-3T22:30:26Z</time></trkpt>
<trkpt lat="46.76335" lon="6.47378"><ele></ele><time>2016-11-3T22:30:29Z</time></trkpt>
<trkpt lat="46.76353" lon="6.47372"><ele></ele><time>2016-11-3T22:30:32Z</time></trkpt>
<trkpt lat="46.76372" lon="6.47367"><ele></ele><time>2016-11-3T22:30:35Z</time></trkpt>
<trkpt lat="46.7639" lon="6.4736"><ele></ele><time>2016-11-3T22:30:38Z</time></trkpt>
<trkpt lat="46.76399" lon="6.47357"><ele></ele><time>2016-11-3T22:30:41Z</time></trkpt>
<trkpt lat="46.764" lon="6.4735"><ele></ele><time>2016-11-3T22:30:44Z</time></trkpt>
<trkpt lat="46.76399" lon="6.47351"><ele></ele><time>2016-11-3T22:30:47Z</time></trkpt>
<trkpt lat="46.76399" lon="6.47351"><ele></ele><time>2016-11-3T22:30:50Z</time></trkpt>
<trkpt lat="46.76399" lon="6.47351"><ele></ele><time>2016-11-3T22:30:53Z</time></trkpt>
<trkpt lat="46.76399" lon="6.47351"><ele></ele><time>2016-11-3T22:30:56Z</time></trkpt>
<trkpt lat="46.76399" lon="6.47351"><ele></ele><time>2016-11-3T22:30:59Z</time></trkpt>
<trkpt lat="46.76398" lon="6.47351"><ele></ele><time>2016-11-3T22:31:2Z</time></trkpt>
<trkpt lat="46.76398" lon="6.47351"><ele></ele><time>2016-11-3T22:31:5Z</time></trkpt>
<trkpt lat="46.76398" lon="6.47352"><ele></ele><time>2016-11-3T22:31:8Z</time></trkpt>
<trkpt lat="46.764" lon="6.47356"><ele></ele><time>2016-11-3T22:31:11Z</time></trkpt>
<trkpt lat="46.76416" lon="6.47344"><ele></ele><time>2016-11-3T22:31:14Z</time></trkpt>
<trkpt lat="46.76425" lon="6.47337"><ele></ele><time>2016-11-3T22:31:17Z</time></trkpt>
<trkpt lat="46.76443" lon="6.47324"><ele></ele><time>2016-11-3T22:31:20Z</time></trkpt>
<trkpt lat="46.76453" lon="6.47318"><ele></ele><time>2016-11-3T22:31:23Z</time></trkpt>
<trkpt lat="46.76459" lon="6.47317"><ele></ele><time>2016-11-3T22:31:26Z</time></trkpt>
<trkpt lat="46.76472" lon="6.47316"><ele></ele><time>2016-11-3T22:31:29Z</time></trkpt>
<trkpt lat="46.76497" lon="6.47321"><ele></ele><time>2016-11-3T22:31:32Z</time></trkpt>
<trkpt lat="46.76517" lon="6.47327"><ele></ele><time>2016-11-3T22:31:35Z</time></trkpt>
<trkpt lat="46.76535" lon="6.47331"><ele></ele><time>2016-11-3T22:31:38Z</time></trkpt>
<trkpt lat="46.76544" lon="6.47336"><ele></ele><time>2016-11-3T22:31:41Z</time></trkpt>
<trkpt lat="46.7656" lon="6.47352"><ele></ele><time>2016-11-3T22:31:44Z</time></trkpt>
<trkpt lat="46.76573" lon="6.47363"><ele></ele><time>2016-11-3T22:31:47Z</time></trkpt>
<trkpt lat="46.76582" lon="6.47362"><ele></ele><time>2016-11-3T22:31:50Z</time></trkpt>
<trkpt lat="46.76582" lon="6.47354"><ele></ele><time>2016-11-3T22:31:53Z</time></trkpt>
<trkpt lat="46.7657" lon="6.47332"><ele></ele><time>2016-11-3T22:31:56Z</time></trkpt>
<trkpt lat="46.76558" lon="6.4731"><ele></ele><time>2016-11-3T22:31:59Z</time></trkpt>
<trkpt lat="46.76547" lon="6.47289"><ele></ele><time>2016-11-3T22:32:2Z</time></trkpt>
<trkpt lat="46.76538" lon="6.47266"><ele></ele><time>2016-11-3T22:32:5Z</time></trkpt>
<trkpt lat="46.76529" lon="6.47242"><ele></ele><time>2016-11-3T22:32:8Z</time></trkpt>
<trkpt lat="46.76524" lon="6.47226"><ele></ele><time>2016-11-3T22:32:11Z</time></trkpt>
<trkpt lat="46.76516" lon="6.47202"><ele></ele><time>2016-11-3T22:32:14Z</time></trkpt>
<trkpt lat="46.76504" lon="6.47169"><ele></ele><time>2016-11-3T22:32:17Z</time></trkpt>
<trkpt lat="46.76496" lon="6.47144"><ele></ele><time>2016-11-3T22:32:20Z</time></trkpt>
<trkpt lat="46.76489" lon="6.4712"><ele></ele><time>2016-11-3T22:32:23Z</time></trkpt>
<trkpt lat="46.76477" lon="6.47098"><ele></ele><time>2016-11-3T22:32:26Z</time></trkpt>
<trkpt lat="46.76466" lon="6.47067"><ele></ele><time>2016-11-3T22:32:29Z</time></trkpt>
<trkpt lat="46.7648" lon="6.47056"><ele></ele><time>2016-11-3T22:32:32Z</time></trkpt>
<trkpt lat="46.76495" lon="6.47074"><ele></ele><time>2016-11-3T22:32:35Z</time></trkpt>
<trkpt lat="46.76508" lon="6.47092"><ele></ele><time>2016-11-3T22:32:38Z</time></trkpt>
<trkpt lat="46.7652" lon="6.47112"><ele></ele><time>2016-11-3T22:32:41Z</time></trkpt>
<trkpt lat="46.76535" lon="6.47126"><ele></ele><time>2016-11-3T22:32:44Z</time></trkpt>
<trkpt lat="46.76538" lon="6.47126"><ele></ele><time>2016-11-3T22:32:47Z</time></trkpt>
<trkpt lat="46.76537" lon="6.47126"><ele></ele><time>2016-11-3T22:32:50Z</time></trkpt>
<trkpt lat="46.76538" lon="6.47125"><ele></ele><time>2016-11-3T22:32:53Z</time></trkpt>
<trkpt lat="46.76538" lon="6.47125"><ele></ele><time>2016-11-3T22:32:56Z</time></trkpt>
<trkpt lat="46.76538" lon="6.47126"><ele></ele><time>2016-11-3T22:32:59Z</time></trkpt>
<trkpt lat="46.76538" lon="6.47127"><ele></ele><time>2016-11-3T22:33:2Z</time></trkpt>
<trkpt lat="46.76541" lon="6.47128"><ele></ele><time>2016-11-3T22:33:5Z</time></trkpt>
<trkpt lat="46.76541" lon="6.47129"><ele></ele><time>2016-11-3T22:33:8Z</time></trkpt>
<trkpt lat="46.76538" lon="6.47128"><ele></ele><time>2016-11-3T22:33:11Z</time></trkpt>
<trkpt lat="46.76537" lon="6.47129"><ele></ele><time>2016-11-3T22:33:14Z</time></trkpt>
<trkpt lat="46.76537" lon="6.47129"><ele></ele><time>2016-11-3T22:33:17Z</time></trkpt>
<trkpt lat="46.7654" lon="6.47138"><ele></ele><time>2016-11-3T22:33:20Z</time></trkpt>
<trkpt lat="46.76557" lon="6.47151"><ele></ele><time>2016-11-3T22:33:23Z</time></trkpt>
<trkpt lat="46.76566" lon="6.4716"><ele></ele><time>2016-11-3T22:33:26Z</time></trkpt>
<trkpt lat="46.76573" lon="6.47166"><ele></ele><time>2016-11-3T22:33:29Z</time></trkpt>
<trkpt lat="46.76579" lon="6.47171"><ele></ele><time>2016-11-3T22:33:32Z</time></trkpt>
<trkpt lat="46.76582" lon="6.47174"><ele></ele><time>2016-11-3T22:33:35Z</time></trkpt>
<trkpt lat="46.76597" lon="6.4719"><ele></ele><time>2016-11-3T22:33:38Z</time></trkpt>
<trkpt lat="46.76602" lon="6.47198"><ele></ele><time>2016-11-3T22:33:41Z</time></trkpt>
<trkpt lat="46.76609" lon="6.47205"><ele></ele><time>2016-11-3T22:33:44Z</time></trkpt>
<trkpt lat="46.76614" lon="6.47212"><ele></ele><time>2016-11-3T22:33:47Z</time></trkpt>
<trkpt lat="46.76628" lon="6.47229"><ele></ele><time>2016-11-3T22:33:50Z</time></trkpt>
<trkpt lat="46.76639" lon="6.47252"><ele></ele><time>2016-11-3T22:33:53Z</time></trkpt>
<trkpt lat="46.76655" lon="6.47267"><ele></ele><time>2016-11-3T22:33:56Z</time></trkpt>
<trkpt lat="46.76668" lon="6.47285"><ele></ele><time>2016-11-3T22:33:59Z</time></trkpt>
<trkpt lat="46.76688" lon="6.47304"><ele></ele><time>2016-11-3T22:34:2Z</time></trkpt>
<trkpt lat="46.76702" lon="6.4732"><ele></ele><time>2016-11-3T22:34:5Z</time></trkpt>
<trkpt lat="46.76716" lon="6.47337"><ele></ele><time>2016-11-3T22:34:8Z</time></trkpt>
<trkpt lat="46.76725" lon="6.47347"><ele></ele><time>2016-11-3T22:34:11Z</time></trkpt>
<trkpt lat="46.7674" lon="6.47363"><ele></ele><time>2016-11-3T22:34:14Z</time></trkpt>
<trkpt lat="46.76767" lon="6.47401"><ele></ele><time>2016-11-3T22:34:17Z</time></trkpt>
<trkpt lat="46.76781" lon="6.47418"><ele></ele><time>2016-11-3T22:34:20Z</time></trkpt>
<trkpt lat="46.76788" lon="6.47426"><ele></ele><time>2016-11-3T22:34:23Z</time></trkpt>
<trkpt lat="46.76803" lon="6.47441"><ele></ele><time>2016-11-3T22:34:26Z</time></trkpt>
<trkpt lat="46.76819" lon="6.47457"><ele></ele><time>2016-11-3T22:34:29Z</time></trkpt>
<trkpt lat="46.76828" lon="6.47465"><ele></ele><time>2016-11-3T22:34:32Z</time></trkpt>
<trkpt lat="46.7684" lon="6.47471"><ele></ele><time>2016-11-3T22:34:35Z</time></trkpt>
<trkpt lat="46.76855" lon="6.47488"><ele></ele><time>2016-11-3T22:34:38Z</time></trkpt>
<trkpt lat="46.76866" lon="6.47503"><ele></ele><time>2016-11-3T22:34:41Z</time></trkpt>
<trkpt lat="46.76871" lon="6.47511"><ele></ele><time>2016-11-3T22:34:44Z</time></trkpt>
<trkpt lat="46.76887" lon="6.47527"><ele></ele><time>2016-11-3T22:34:47Z</time></trkpt>
<trkpt lat="46.76903" lon="6.47542"><ele></ele><time>2016-11-3T22:34:50Z</time></trkpt>
<trkpt lat="46.76919" lon="6.47557"><ele></ele><time>2016-11-3T22:34:53Z</time></trkpt>
<trkpt lat="46.76929" lon="6.47564"><ele></ele><time>2016-11-3T22:34:56Z</time></trkpt>
<trkpt lat="46.76945" lon="6.47578"><ele></ele><time>2016-11-3T22:34:59Z</time></trkpt>
<trkpt lat="46.76961" lon="6.47593"><ele></ele><time>2016-11-3T22:35:2Z</time></trkpt>
<trkpt lat="46.76981" lon="6.47615"><ele></ele><time>2016-11-3T22:35:5Z</time></trkpt>
<trkpt lat="46.76996" lon="6.4763"><ele></ele><time>2016-11-3T22:35:8Z</time></trkpt>
<trkpt lat="46.77011" lon="6.47645"><ele></ele><time>2016-11-3T22:35:11Z</time></trkpt>
<trkpt lat="46.77027" lon="6.4766"><ele></ele><time>2016-11-3T22:35:14Z</time></trkpt>
<trkpt lat="46.77039" lon="6.47669"><ele></ele><time>2016-11-3T22:35:17Z</time></trkpt>
<trkpt lat="46.77048" lon="6.47676"><ele></ele><time>2016-11-3T22:35:20Z</time></trkpt>
<trkpt lat="46.77066" lon="6.47693"><ele></ele><time>2016-11-3T22:35:23Z</time></trkpt>
<trkpt lat="46.77075" lon="6.47702"><ele></ele><time>2016-11-3T22:35:26Z</time></trkpt>
<trkpt lat="46.77087" lon="6.47713"><ele></ele><time>2016-11-3T22:35:29Z</time></trkpt>
<trkpt lat="46.77104" lon="6.47726"><ele></ele><time>2016-11-3T22:35:32Z</time></trkpt>
<trkpt lat="46.77122" lon="6.47733"><ele></ele><time>2016-11-3T22:35:35Z</time></trkpt>
<trkpt lat="46.77138" lon="6.47747"><ele></ele><time>2016-11-3T22:35:38Z</time></trkpt>
<trkpt lat="46.77157" lon="6.47753"><ele></ele><time>2016-11-3T22:35:41Z</time></trkpt>
<trkpt lat="46.77169" lon="6.47756"><ele></ele><time>2016-11-3T22:35:44Z</time></trkpt>
<trkpt lat="46.77188" lon="6.47751"><ele></ele><time>2016-11-3T22:35:47Z</time></trkpt>
<trkpt lat="46.77196" lon="6.47743"><ele></ele><time>2016-11-3T22:35:50Z</time></trkpt>
<trkpt lat="46.77206" lon="6.47723"><ele></ele><time>2016-11-3T22:35:53Z</time></trkpt>
<trkpt lat="46.77224" lon="6.47724"><ele></ele><time>2016-11-3T22:35:56Z</time></trkpt>
<trkpt lat="46.7724" lon="6.47738"><ele></ele><time>2016-11-3T22:35:59Z</time></trkpt>
<trkpt lat="46.77246" lon="6.47742"><ele></ele><time>2016-11-3T22:36:2Z</time></trkpt>
<trkpt lat="46.77262" lon="6.47756"><ele></ele><time>2016-11-3T22:36:5Z</time></trkpt>
<trkpt lat="46.77273" lon="6.47765"><ele></ele><time>2016-11-3T22:36:8Z</time></trkpt>
<trkpt lat="46.77287" lon="6.47777"><ele></ele><time>2016-11-3T22:36:11Z</time></trkpt>
<trkpt lat="46.77288" lon="6.47778"><ele></ele><time>2016-11-3T22:36:14Z</time></trkpt>
<trkpt lat="46.77304" lon="6.47794"><ele></ele><time>2016-11-3T22:36:17Z</time></trkpt>
<trkpt lat="46.77321" lon="6.47804"><ele></ele><time>2016-11-3T22:36:20Z</time></trkpt>
<trkpt lat="46.77339" lon="6.4781"><ele></ele><time>2016-11-3T22:36:23Z</time></trkpt>
<trkpt lat="46.77358" lon="6.47814"><ele></ele><time>2016-11-3T22:36:26Z</time></trkpt>
<trkpt lat="46.77368" lon="6.47809"><ele></ele><time>2016-11-3T22:36:29Z</time></trkpt>
<trkpt lat="46.77378" lon="6.47803"><ele></ele><time>2016-11-3T22:36:32Z</time></trkpt>
<trkpt lat="46.77384" lon="6.47799"><ele></ele><time>2016-11-3T22:36:35Z</time></trkpt>
<trkpt lat="46.77407" lon="6.47791"><ele></ele><time>2016-11-3T22:36:38Z</time></trkpt>
<trkpt lat="46.77427" lon="6.47793"><ele></ele><time>2016-11-3T22:36:41Z</time></trkpt>
<trkpt lat="46.77434" lon="6.47794"><ele></ele><time>2016-11-3T22:36:44Z</time></trkpt>
<trkpt lat="46.77452" lon="6.47798"><ele></ele><time>2016-11-3T22:36:47Z</time></trkpt>
<trkpt lat="46.7747" lon="6.47808"><ele></ele><time>2016-11-3T22:36:50Z</time></trkpt>
<trkpt lat="46.77486" lon="6.47807"><ele></ele><time>2016-11-3T22:36:53Z</time></trkpt>
<trkpt lat="46.77484" lon="6.47791"><ele></ele><time>2016-11-3T22:36:56Z</time></trkpt>
<trkpt lat="46.77466" lon="6.4778"><ele></ele><time>2016-11-3T22:36:59Z</time></trkpt>
<trkpt lat="46.7745" lon="6.47766"><ele></ele><time>2016-11-3T22:37:2Z</time></trkpt>
<trkpt lat="46.77449" lon="6.47765"><ele></ele><time>2016-11-3T22:37:5Z</time></trkpt>
<trkpt lat="46.77438" lon="6.47756"><ele></ele><time>2016-11-3T22:37:8Z</time></trkpt>
<trkpt lat="46.77433" lon="6.47749"><ele></ele><time>2016-11-3T22:37:11Z</time></trkpt>
<trkpt lat="46.77429" lon="6.47741"><ele></ele><time>2016-11-3T22:37:14Z</time></trkpt>
<trkpt lat="46.77424" lon="6.4773"><ele></ele><time>2016-11-3T22:37:17Z</time></trkpt>
<trkpt lat="46.7741" lon="6.47714"><ele></ele><time>2016-11-3T22:37:20Z</time></trkpt>
<trkpt lat="46.77396" lon="6.47694"><ele></ele><time>2016-11-3T22:37:23Z</time></trkpt>
<trkpt lat="46.7738" lon="6.47682"><ele></ele><time>2016-11-3T22:37:26Z</time></trkpt>
<trkpt lat="46.77362" lon="6.47679"><ele></ele><time>2016-11-3T22:37:29Z</time></trkpt>
<trkpt lat="46.77345" lon="6.47677"><ele></ele><time>2016-11-3T22:37:32Z</time></trkpt>
<trkpt lat="46.77339" lon="6.47676"><ele></ele><time>2016-11-3T22:37:35Z</time></trkpt>
<trkpt lat="46.77336" lon="6.47675"><ele></ele><time>2016-11-3T22:37:38Z</time></trkpt>
<trkpt lat="46.77324" lon="6.47669"><ele></ele><time>2016-11-3T22:37:41Z</time></trkpt>
<trkpt lat="46.77306" lon="6.4765"><ele></ele><time>2016-11-3T22:37:44Z</time></trkpt>
<trkpt lat="46.77301" lon="6.47642"><ele></ele><time>2016-11-3T22:37:47Z</time></trkpt>
<trkpt lat="46.77291" lon="6.47621"><ele></ele><time>2016-11-3T22:37:50Z</time></trkpt>
<trkpt lat="46.77278" lon="6.47602"><ele></ele><time>2016-11-3T22:37:53Z</time></trkpt>
<trkpt lat="46.77265" lon="6.47584"><ele></ele><time>2016-11-3T22:37:56Z</time></trkpt>
<trkpt lat="46.7725" lon="6.47567"><ele></ele><time>2016-11-3T22:37:59Z</time></trkpt>
<trkpt lat="46.7723" lon="6.47544"><ele></ele><time>2016-11-3T22:38:2Z</time></trkpt>
<trkpt lat="46.77216" lon="6.47527"><ele></ele><time>2016-11-3T22:38:5Z</time></trkpt>
<trkpt lat="46.77202" lon="6.47511"><ele></ele><time>2016-11-3T22:38:8Z</time></trkpt>
<trkpt lat="46.7719" lon="6.47492"><ele></ele><time>2016-11-3T22:38:11Z</time></trkpt>
<trkpt lat="46.77176" lon="6.47475"><ele></ele><time>2016-11-3T22:38:14Z</time></trkpt>
<trkpt lat="46.77169" lon="6.47464"><ele></ele><time>2016-11-3T22:38:17Z</time></trkpt>
<trkpt lat="46.77156" lon="6.47445"><ele></ele><time>2016-11-3T22:38:20Z</time></trkpt>
<trkpt lat="46.77151" lon="6.47431"><ele></ele><time>2016-11-3T22:38:23Z</time></trkpt>
<trkpt lat="46.77144" lon="6.47414"><ele></ele><time>2016-11-3T22:38:26Z</time></trkpt>
<trkpt lat="46.77133" lon="6.4739"><ele></ele><time>2016-11-3T22:38:29Z</time></trkpt>
<trkpt lat="46.7712" lon="6.47372"><ele></ele><time>2016-11-3T22:38:32Z</time></trkpt>
<trkpt lat="46.77108" lon="6.47352"><ele></ele><time>2016-11-3T22:38:35Z</time></trkpt>
<trkpt lat="46.77098" lon="6.47333"><ele></ele><time>2016-11-3T22:38:38Z</time></trkpt>
<trkpt lat="46.77095" lon="6.47325"><ele></ele><time>2016-11-3T22:38:41Z</time></trkpt>
<trkpt lat="46.77094" lon="6.47323"><ele></ele><time>2016-11-3T22:38:44Z</time></trkpt>
<trkpt lat="46.77091" lon="6.47316"><ele></ele><time>2016-11-3T22:38:47Z</time></trkpt>
<trkpt lat="46.7709" lon="6.47311"><ele></ele><time>2016-11-3T22:38:50Z</time></trkpt>
<trkpt lat="46.77082" lon="6.47297"><ele></ele><time>2016-11-3T22:38:53Z</time></trkpt>
<trkpt lat="46.77082" lon="6.47295"><ele></ele><time>2016-11-3T22:38:56Z</time></trkpt>
<trkpt lat="46.7708" lon="6.47288"><ele></ele><time>2016-11-3T22:38:59Z</time></trkpt>
<trkpt lat="46.77079" lon="6.47284"><ele></ele><time>2016-11-3T22:39:2Z</time></trkpt>
<trkpt lat="46.77074" lon="6.47271"><ele></ele><time>2016-11-3T22:39:5Z</time></trkpt>
<trkpt lat="46.77065" lon="6.47238"><ele></ele><time>2016-11-3T22:39:8Z</time></trkpt>
<trkpt lat="46.7706" lon="6.47226"><ele></ele><time>2016-11-3T22:39:11Z</time></trkpt>
<trkpt lat="46.77055" lon="6.47202"><ele></ele><time>2016-11-3T22:39:14Z</time></trkpt>
<trkpt lat="46.77053" lon="6.47194"><ele></ele><time>2016-11-3T22:39:17Z</time></trkpt>
<trkpt lat="46.77053" lon="6.47194"><ele></ele><time>2016-11-3T22:39:20Z</time></trkpt>
<trkpt lat="46.7705" lon="6.47182"><ele></ele><time>2016-11-3T22:39:23Z</time></trkpt>
<trkpt lat="46.77045" lon="6.47167"><ele></ele><time>2016-11-3T22:39:26Z</time></trkpt>
<trkpt lat="46.77039" lon="6.47142"><ele></ele><time>2016-11-3T22:39:29Z</time></trkpt>
<trkpt lat="46.77032" lon="6.47122"><ele></ele><time>2016-11-3T22:39:32Z</time></trkpt>
<trkpt lat="46.77024" lon="6.47097"><ele></ele><time>2016-11-3T22:39:35Z</time></trkpt>
<trkpt lat="46.77014" lon="6.47073"><ele></ele><time>2016-11-3T22:39:38Z</time></trkpt>
<trkpt lat="46.77004" lon="6.47048"><ele></ele><time>2016-11-3T22:39:41Z</time></trkpt>
<trkpt lat="46.76996" lon="6.47025"><ele></ele><time>2016-11-3T22:39:44Z</time></trkpt>
<trkpt lat="46.76987" lon="6.47001"><ele></ele><time>2016-11-3T22:39:47Z</time></trkpt>
<trkpt lat="46.7698" lon="6.46982"><ele></ele><time>2016-11-3T22:39:50Z</time></trkpt>
<trkpt lat="46.76975" lon="6.46963"><ele></ele><time>2016-11-3T22:39:53Z</time></trkpt>
<trkpt lat="46.76973" lon="6.46946"><ele></ele><time>2016-11-3T22:39:56Z</time></trkpt>
<trkpt lat="46.76971" lon="6.46918"><ele></ele><time>2016-11-3T22:39:59Z</time></trkpt>
<trkpt lat="46.76967" lon="6.46891"><ele></ele><time>2016-11-3T22:40:2Z</time></trkpt>
<trkpt lat="46.7696" lon="6.46867"><ele></ele><time>2016-11-3T22:40:5Z</time></trkpt>
<trkpt lat="46.76949" lon="6.46837"><ele></ele><time>2016-11-3T22:40:8Z</time></trkpt>
<trkpt lat="46.76939" lon="6.46814"><ele></ele><time>2016-11-3T22:40:11Z</time></trkpt>
<trkpt lat="46.76932" lon="6.46797"><ele></ele><time>2016-11-3T22:40:14Z</time></trkpt>
<trkpt lat="46.76923" lon="6.46772"><ele></ele><time>2016-11-3T22:40:17Z</time></trkpt>
<trkpt lat="46.76917" lon="6.46751"><ele></ele><time>2016-11-3T22:40:20Z</time></trkpt>
<trkpt lat="46.76913" lon="6.46725"><ele></ele><time>2016-11-3T22:40:23Z</time></trkpt>
<trkpt lat="46.76912" lon="6.46725"><ele></ele><time>2016-11-3T22:40:26Z</time></trkpt>
<trkpt lat="46.7691" lon="6.46724"><ele></ele><time>2016-11-3T22:40:29Z</time></trkpt>
<trkpt lat="46.7691" lon="6.46724"><ele></ele><time>2016-11-3T22:40:32Z</time></trkpt>
<trkpt lat="46.7691" lon="6.46724"><ele></ele><time>2016-11-3T22:40:35Z</time></trkpt>
<trkpt lat="46.7691" lon="6.46724"><ele></ele><time>2016-11-3T22:40:38Z</time></trkpt>
<trkpt lat="46.7691" lon="6.46724"><ele></ele><time>2016-11-3T22:40:41Z</time></trkpt>
<trkpt lat="46.76909" lon="6.467"><ele></ele><time>2016-11-3T22:40:44Z</time></trkpt>
<trkpt lat="46.7691" lon="6.46674"><ele></ele><time>2016-11-3T22:40:47Z</time></trkpt>
<trkpt lat="46.76913" lon="6.46646"><ele></ele><time>2016-11-3T22:40:50Z</time></trkpt>
<trkpt lat="46.76914" lon="6.46626"><ele></ele><time>2016-11-3T22:40:53Z</time></trkpt>
<trkpt lat="46.76915" lon="6.46598"><ele></ele><time>2016-11-3T22:40:56Z</time></trkpt>
<trkpt lat="46.76914" lon="6.4659"><ele></ele><time>2016-11-3T22:40:59Z</time></trkpt>
<trkpt lat="46.76908" lon="6.46569"><ele></ele><time>2016-11-3T22:41:2Z</time></trkpt>
<trkpt lat="46.76901" lon="6.46555"><ele></ele><time>2016-11-3T22:41:5Z</time></trkpt>
<trkpt lat="46.76887" lon="6.46538"><ele></ele><time>2016-11-3T22:41:8Z</time></trkpt>
<trkpt lat="46.76884" lon="6.46536"><ele></ele><time>2016-11-3T22:41:11Z</time></trkpt>
<trkpt lat="46.76867" lon="6.46522"><ele></ele><time>2016-11-3T22:41:14Z</time></trkpt>
<trkpt lat="46.7686" lon="6.46515"><ele></ele><time>2016-11-3T22:41:17Z</time></trkpt>
<trkpt lat="46.76862" lon="6.46513"><ele></ele><time>2016-11-3T22:41:20Z</time></trkpt>
<trkpt lat="46.76868" lon="6.46521"><ele></ele><time>2016-11-3T22:41:23Z</time></trkpt>
<trkpt lat="46.76868" lon="6.46521"><ele></ele><time>2016-11-3T22:41:26Z</time></trkpt>
<trkpt lat="46.76867" lon="6.4652"><ele></ele><time>2016-11-3T22:41:29Z</time></trkpt>
<trkpt lat="46.7687" lon="6.4652"><ele></ele><time>2016-11-3T22:41:32Z</time></trkpt>
<trkpt lat="46.76868" lon="6.46519"><ele></ele><time>2016-11-3T22:41:35Z</time></trkpt>
<trkpt lat="46.76868" lon="6.46521"><ele></ele><time>2016-11-3T22:41:38Z</time></trkpt>
<trkpt lat="46.76868" lon="6.46521"><ele></ele><time>2016-11-3T22:41:41Z</time></trkpt>
<trkpt lat="46.76867" lon="6.46521"><ele></ele><time>2016-11-3T22:41:44Z</time></trkpt>
<trkpt lat="46.76867" lon="6.46521"><ele></ele><time>2016-11-3T22:41:47Z</time></trkpt>
<trkpt lat="46.76867" lon="6.4652"><ele></ele><time>2016-11-3T22:41:50Z</time></trkpt>
<trkpt lat="46.76867" lon="6.46519"><ele></ele><time>2016-11-3T22:41:53Z</time></trkpt>
<trkpt lat="46.76868" lon="6.46519"><ele></ele><time>2016-11-3T22:41:56Z</time></trkpt>
<trkpt lat="46.76868" lon="6.46519"><ele></ele><time>2016-11-3T22:41:59Z</time></trkpt>
<trkpt lat="46.76868" lon="6.4652"><ele></ele><time>2016-11-3T22:42:2Z</time></trkpt>
<trkpt lat="46.76868" lon="6.4652"><ele></ele><time>2016-11-3T22:42:5Z</time></trkpt>
<trkpt lat="46.76868" lon="6.46522"><ele></ele><time>2016-11-3T22:42:8Z</time></trkpt>
<trkpt lat="46.76864" lon="6.46509"><ele></ele><time>2016-11-3T22:42:11Z</time></trkpt>
<trkpt lat="46.76857" lon="6.465"><ele></ele><time>2016-11-3T22:42:14Z</time></trkpt>
<trkpt lat="46.7686" lon="6.4649"><ele></ele><time>2016-11-3T22:42:17Z</time></trkpt>
<trkpt lat="46.76861" lon="6.46489"><ele></ele><time>2016-11-3T22:42:20Z</time></trkpt>
<trkpt lat="46.76863" lon="6.46487"><ele></ele><time>2016-11-3T22:42:23Z</time></trkpt>
<trkpt lat="46.76865" lon="6.46483"><ele></ele><time>2016-11-3T22:42:26Z</time></trkpt>
<trkpt lat="46.7687" lon="6.46471"><ele></ele><time>2016-11-3T22:42:29Z</time></trkpt>
<trkpt lat="46.76871" lon="6.46469"><ele></ele><time>2016-11-3T22:42:32Z</time></trkpt>
<trkpt lat="46.7687" lon="6.46467"><ele></ele><time>2016-11-3T22:42:35Z</time></trkpt>
<trkpt lat="46.76875" lon="6.46465"><ele></ele><time>2016-11-3T22:42:38Z</time></trkpt>
<trkpt lat="46.76878" lon="6.4646"><ele></ele><time>2016-11-3T22:42:41Z</time></trkpt>
<trkpt lat="46.76879" lon="6.46459"><ele></ele><time>2016-11-3T22:42:44Z</time></trkpt>
<trkpt lat="46.76898" lon="6.46446"><ele></ele><time>2016-11-3T22:42:47Z</time></trkpt>
<trkpt lat="46.76902" lon="6.46449"><ele></ele><time>2016-11-3T22:42:50Z</time></trkpt>
<trkpt lat="46.76906" lon="6.46451"><ele></ele><time>2016-11-3T22:42:53Z</time></trkpt>
<trkpt lat="46.76909" lon="6.46455"><ele></ele><time>2016-11-3T22:42:56Z</time></trkpt>
<trkpt lat="46.76916" lon="6.46458"><ele></ele><time>2016-11-3T22:42:59Z</time></trkpt>
<trkpt lat="46.76925" lon="6.46449"><ele></ele><time>2016-11-3T22:43:2Z</time></trkpt>
<trkpt lat="46.76935" lon="6.46451"><ele></ele><time>2016-11-3T22:43:5Z</time></trkpt>
<trkpt lat="46.76936" lon="6.46453"><ele></ele><time>2016-11-3T22:43:8Z</time></trkpt>
<trkpt lat="46.76939" lon="6.4646"><ele></ele><time>2016-11-3T22:43:11Z</time></trkpt>
<trkpt lat="46.76947" lon="6.46475"><ele></ele><time>2016-11-3T22:43:14Z</time></trkpt>
<trkpt lat="46.76961" lon="6.46489"><ele></ele><time>2016-11-3T22:43:17Z</time></trkpt>
<trkpt lat="46.76978" lon="6.46501"><ele></ele><time>2016-11-3T22:43:20Z</time></trkpt>
<trkpt lat="46.76979" lon="6.46501"><ele></ele><time>2016-11-3T22:43:23Z</time></trkpt>
<trkpt lat="46.76988" lon="6.46504"><ele></ele><time>2016-11-3T22:43:26Z</time></trkpt>
<trkpt lat="46.77004" lon="6.46516"><ele></ele><time>2016-11-3T22:43:29Z</time></trkpt>
<trkpt lat="46.77011" lon="6.4652"><ele></ele><time>2016-11-3T22:43:32Z</time></trkpt>
<trkpt lat="46.77018" lon="6.46523"><ele></ele><time>2016-11-3T22:43:35Z</time></trkpt>
<trkpt lat="46.77022" lon="6.46528"><ele></ele><time>2016-11-3T22:43:38Z</time></trkpt>
<trkpt lat="46.77027" lon="6.4653"><ele></ele><time>2016-11-3T22:43:41Z</time></trkpt>
<trkpt lat="46.77035" lon="6.46539"><ele></ele><time>2016-11-3T22:43:44Z</time></trkpt>
<trkpt lat="46.77038" lon="6.46544"><ele></ele><time>2016-11-3T22:43:47Z</time></trkpt>
<trkpt lat="46.77044" lon="6.46553"><ele></ele><time>2016-11-3T22:43:50Z</time></trkpt>
<trkpt lat="46.77053" lon="6.4656"><ele></ele><time>2016-11-3T22:43:53Z</time></trkpt>
<trkpt lat="46.77058" lon="6.46563"><ele></ele><time>2016-11-3T22:43:56Z</time></trkpt>
<trkpt lat="46.77066" lon="6.46561"><ele></ele><time>2016-11-3T22:43:59Z</time></trkpt>
<trkpt lat="46.7707" lon="6.46563"><ele></ele><time>2016-11-3T22:44:2Z</time></trkpt>
<trkpt lat="46.77082" lon="6.46573"><ele></ele><time>2016-11-3T22:44:5Z</time></trkpt>
<trkpt lat="46.77083" lon="6.46575"><ele></ele><time>2016-11-3T22:44:8Z</time></trkpt>
<trkpt lat="46.77087" lon="6.4657"><ele></ele><time>2016-11-3T22:44:11Z</time></trkpt>
<trkpt lat="46.77088" lon="6.46564"><ele></ele><time>2016-11-3T22:44:14Z</time></trkpt>
<trkpt lat="46.7709" lon="6.46554"><ele></ele><time>2016-11-3T22:44:17Z</time></trkpt>
<trkpt lat="46.77091" lon="6.46553"><ele></ele><time>2016-11-3T22:44:20Z</time></trkpt>
<trkpt lat="46.77092" lon="6.46545"><ele></ele><time>2016-11-3T22:44:23Z</time></trkpt>
<trkpt lat="46.77099" lon="6.46546"><ele></ele><time>2016-11-3T22:44:26Z</time></trkpt>
<trkpt lat="46.77101" lon="6.46549"><ele></ele><time>2016-11-3T22:44:29Z</time></trkpt>
<trkpt lat="46.77106" lon="6.46556"><ele></ele><time>2016-11-3T22:44:32Z</time></trkpt>
<trkpt lat="46.77112" lon="6.46562"><ele></ele><time>2016-11-3T22:44:35Z</time></trkpt>
<trkpt lat="46.77117" lon="6.46556"><ele></ele><time>2016-11-3T22:44:38Z</time></trkpt>
<trkpt lat="46.77117" lon="6.46553"><ele></ele><time>2016-11-3T22:44:41Z</time></trkpt>
<trkpt lat="46.77123" lon="6.46534"><ele></ele><time>2016-11-3T22:44:44Z</time></trkpt>
<trkpt lat="46.77126" lon="6.46534"><ele></ele><time>2016-11-3T22:44:47Z</time></trkpt>
<trkpt lat="46.77132" lon="6.46545"><ele></ele><time>2016-11-3T22:44:50Z</time></trkpt>
<trkpt lat="46.7714" lon="6.46561"><ele></ele><time>2016-11-3T22:44:53Z</time></trkpt>
<trkpt lat="46.77144" lon="6.46554"><ele></ele><time>2016-11-3T22:44:56Z</time></trkpt>
<trkpt lat="46.77146" lon="6.46547"><ele></ele><time>2016-11-3T22:44:59Z</time></trkpt>
<trkpt lat="46.7715" lon="6.46546"><ele></ele><time>2016-11-3T22:45:2Z</time></trkpt>
<trkpt lat="46.77153" lon="6.4654"><ele></ele><time>2016-11-3T22:45:5Z</time></trkpt>
<trkpt lat="46.77156" lon="6.46534"><ele></ele><time>2016-11-3T22:45:8Z</time></trkpt>
<trkpt lat="46.77161" lon="6.46543"><ele></ele><time>2016-11-3T22:45:11Z</time></trkpt>
<trkpt lat="46.77166" lon="6.4655"><ele></ele><time>2016-11-3T22:45:14Z</time></trkpt>
<trkpt lat="46.77172" lon="6.4654"><ele></ele><time>2016-11-3T22:45:17Z</time></trkpt>
<trkpt lat="46.77173" lon="6.46538"><ele></ele><time>2016-11-3T22:45:20Z</time></trkpt>
<trkpt lat="46.77183" lon="6.46547"><ele></ele><time>2016-11-3T22:45:23Z</time></trkpt>
<trkpt lat="46.77187" lon="6.46547"><ele></ele><time>2016-11-3T22:45:26Z</time></trkpt>
<trkpt lat="46.77189" lon="6.46546"><ele></ele><time>2016-11-3T22:45:29Z</time></trkpt>
<trkpt lat="46.77195" lon="6.46548"><ele></ele><time>2016-11-3T22:45:32Z</time></trkpt>
<trkpt lat="46.77196" lon="6.46549"><ele></ele><time>2016-11-3T22:45:35Z</time></trkpt>
<trkpt lat="46.77199" lon="6.46558"><ele></ele><time>2016-11-3T22:45:38Z</time></trkpt>
<trkpt lat="46.77211" lon="6.46568"><ele></ele><time>2016-11-3T22:45:41Z</time></trkpt>
<trkpt lat="46.7722" lon="6.46576"><ele></ele><time>2016-11-3T22:45:44Z</time></trkpt>
<trkpt lat="46.77223" lon="6.46584"><ele></ele><time>2016-11-3T22:45:47Z</time></trkpt>
<trkpt lat="46.7723" lon="6.46582"><ele></ele><time>2016-11-3T22:45:50Z</time></trkpt>
<trkpt lat="46.77233" lon="6.46584"><ele></ele><time>2016-11-3T22:45:53Z</time></trkpt>
<trkpt lat="46.77233" lon="6.4659"><ele></ele><time>2016-11-3T22:45:56Z</time></trkpt>
<trkpt lat="46.77232" lon="6.46594"><ele></ele><time>2016-11-3T22:45:59Z</time></trkpt>
<trkpt lat="46.77235" lon="6.46596"><ele></ele><time>2016-11-3T22:46:2Z</time></trkpt>
<trkpt lat="46.77242" lon="6.46594"><ele></ele><time>2016-11-3T22:46:5Z</time></trkpt>
<trkpt lat="46.77252" lon="6.46613"><ele></ele><time>2016-11-3T22:46:8Z</time></trkpt>
<trkpt lat="46.7725" lon="6.46613"><ele></ele><time>2016-11-3T22:46:11Z</time></trkpt>
<trkpt lat="46.7725" lon="6.46613"><ele></ele><time>2016-11-3T22:46:14Z</time></trkpt>
<trkpt lat="46.7725" lon="6.46613"><ele></ele><time>2016-11-3T22:46:17Z</time></trkpt>
<trkpt lat="46.7725" lon="6.46614"><ele></ele><time>2016-11-3T22:46:20Z</time></trkpt>
<trkpt lat="46.7724" lon="6.46631"><ele></ele><time>2016-11-3T22:46:23Z</time></trkpt>
<trkpt lat="46.77233" lon="6.46635"><ele></ele><time>2016-11-3T22:46:26Z</time></trkpt>
<trkpt lat="46.77231" lon="6.46643"><ele></ele><time>2016-11-3T22:46:29Z</time></trkpt>
<trkpt lat="46.77232" lon="6.46645"><ele></ele><time>2016-11-3T22:46:32Z</time></trkpt>
<trkpt lat="46.77232" lon="6.46646"><ele></ele><time>2016-11-3T22:46:35Z</time></trkpt>
<trkpt lat="46.77232" lon="6.46646"><ele></ele><time>2016-11-3T22:46:38Z</time></trkpt>
<trkpt lat="46.77232" lon="6.46644"><ele></ele><time>2016-11-3T22:46:41Z</time></trkpt>
<trkpt lat="46.77232" lon="6.46645"><ele></ele><time>2016-11-3T22:46:44Z</time></trkpt>
<trkpt lat="46.77233" lon="6.46645"><ele></ele><time>2016-11-3T22:46:47Z</time></trkpt>
<trkpt lat="46.7723" lon="6.46638"><ele></ele><time>2016-11-3T22:46:50Z</time></trkpt>
<trkpt lat="46.77228" lon="6.46634"><ele></ele><time>2016-11-3T22:46:53Z</time></trkpt>
<trkpt lat="46.77228" lon="6.46635"><ele></ele><time>2016-11-3T22:46:56Z</time></trkpt>
<trkpt lat="46.77228" lon="6.46635"><ele></ele><time>2016-11-3T22:46:59Z</time></trkpt>
<trkpt lat="46.77231" lon="6.4664"><ele></ele><time>2016-11-3T22:47:2Z</time></trkpt>
<trkpt lat="46.77233" lon="6.46645"><ele></ele><time>2016-11-3T22:47:5Z</time></trkpt>
<trkpt lat="46.77233" lon="6.46645"><ele></ele><time>2016-11-3T22:47:8Z</time></trkpt>
<trkpt lat="46.77232" lon="6.46645"><ele></ele><time>2016-11-3T22:47:11Z</time></trkpt>
<trkpt lat="46.77233" lon="6.46644"><ele></ele><time>2016-11-3T22:47:14Z</time></trkpt>
<trkpt lat="46.77233" lon="6.46644"><ele></ele><time>2016-11-3T22:47:17Z</time></trkpt>
<trkpt lat="46.77232" lon="6.46644"><ele></ele><time>2016-11-3T22:47:20Z</time></trkpt>
<trkpt lat="46.77232" lon="6.46644"><ele></ele><time>2016-11-3T22:47:23Z</time></trkpt>
<trkpt lat="46.77233" lon="6.46644"><ele></ele><time>2016-11-3T22:47:26Z</time></trkpt>
<trkpt lat="46.77233" lon="6.46644"><ele></ele><time>2016-11-3T22:47:29Z</time></trkpt>
<trkpt lat="46.77233" lon="6.46644"><ele></ele><time>2016-11-3T22:47:32Z</time></trkpt>
<trkpt lat="46.77233" lon="6.46644"><ele></ele><time>2016-11-3T22:47:35Z</time></trkpt>
<trkpt lat="46.77233" lon="6.46645"><ele></ele><time>2016-11-3T22:47:38Z</time></trkpt>
<trkpt lat="46.77233" lon="6.46645"><ele></ele><time>2016-11-3T22:47:41Z</time></trkpt>
<trkpt lat="46.77232" lon="6.46644"><ele></ele><time>2016-11-3T22:47:44Z</time></trkpt>
<trkpt lat="46.77234" lon="6.46643"><ele></ele><time>2016-11-3T22:47:47Z</time></trkpt>
<trkpt lat="46.77233" lon="6.46643"><ele></ele><time>2016-11-3T22:47:50Z</time></trkpt>
<trkpt lat="46.77233" lon="6.46643"><ele></ele><time>2016-11-3T22:47:53Z</time></trkpt>
<trkpt lat="46.77233" lon="6.46643"><ele></ele><time>2016-11-3T22:47:56Z</time></trkpt>
<trkpt lat="46.77233" lon="6.46643"><ele></ele><time>2016-11-3T22:47:59Z</time></trkpt>
<trkpt lat="46.77233" lon="6.46643"><ele></ele><time>2016-11-3T22:48:2Z</time></trkpt>
<trkpt lat="46.77233" lon="6.46644"><ele></ele><time>2016-11-3T22:48:5Z</time></trkpt>
<trkpt lat="46.77233" lon="6.46644"><ele></ele><time>2016-11-3T22:48:8Z</time></trkpt>
<trkpt lat="46.77232" lon="6.46644"><ele></ele><time>2016-11-3T22:48:11Z</time></trkpt>
<trkpt lat="46.77232" lon="6.46644"><ele></ele><time>2016-11-3T22:48:14Z</time></trkpt>
<trkpt lat="46.77232" lon="6.46645"><ele></ele><time>2016-11-3T22:48:17Z</time></trkpt>
<trkpt lat="46.77232" lon="6.46645"><ele></ele><time>2016-11-3T22:48:20Z</time></trkpt>
<trkpt lat="46.77233" lon="6.46644"><ele></ele><time>2016-11-3T22:48:23Z</time></trkpt>
<trkpt lat="46.77233" lon="6.46645"><ele></ele><time>2016-11-3T22:48:26Z</time></trkpt>
<trkpt lat="46.77233" lon="6.46645"><ele></ele><time>2016-11-3T22:48:29Z</time></trkpt>
<trkpt lat="46.77232" lon="6.46645"><ele></ele><time>2016-11-3T22:48:32Z</time></trkpt>
<trkpt lat="46.77232" lon="6.46645"><ele></ele><time>2016-11-3T22:48:35Z</time></trkpt>
<trkpt lat="46.77233" lon="6.46645"><ele></ele><time>2016-11-3T22:48:38Z</time></trkpt>
<trkpt lat="46.77233" lon="6.46645"><ele></ele><time>2016-11-3T22:48:41Z</time></trkpt>
<trkpt lat="46.77233" lon="6.46644"><ele></ele><time>2016-11-3T22:48:44Z</time></trkpt>
<trkpt lat="46.77232" lon="6.46645"><ele></ele><time>2016-11-3T22:48:47Z</time></trkpt>
<trkpt lat="46.77232" lon="6.46645"><ele></ele><time>2016-11-3T22:48:50Z</time></trkpt>
<trkpt lat="46.77232" lon="6.46645"><ele></ele><time>2016-11-3T22:48:53Z</time></trkpt>
<trkpt lat="46.77233" lon="6.46645"><ele></ele><time>2016-11-3T22:48:56Z</time></trkpt>
<trkpt lat="46.77234" lon="6.46645"><ele></ele><time>2016-11-3T22:48:59Z</time></trkpt>
<trkpt lat="46.77234" lon="6.46644"><ele></ele><time>2016-11-3T22:49:2Z</time></trkpt>
<trkpt lat="46.77234" lon="6.46645"><ele></ele><time>2016-11-3T22:49:5Z</time></trkpt>
<trkpt lat="46.77234" lon="6.46645"><ele></ele><time>2016-11-3T22:49:8Z</time></trkpt>
<trkpt lat="46.77233" lon="6.46645"><ele></ele><time>2016-11-3T22:49:11Z</time></trkpt>
<trkpt lat="46.77233" lon="6.46645"><ele></ele><time>2016-11-3T22:49:14Z</time></trkpt>
<trkpt lat="46.77232" lon="6.46647"><ele></ele><time>2016-11-3T22:49:17Z</time></trkpt>
<trkpt lat="46.77232" lon="6.46646"><ele></ele><time>2016-11-3T22:49:20Z</time></trkpt>
<trkpt lat="46.77232" lon="6.46645"><ele></ele><time>2016-11-3T22:49:23Z</time></trkpt>
<trkpt lat="46.77232" lon="6.46645"><ele></ele><time>2016-11-3T22:49:26Z</time></trkpt>
<trkpt lat="46.77232" lon="6.46645"><ele></ele><time>2016-11-3T22:49:29Z</time></trkpt>
<trkpt lat="46.77232" lon="6.46645"><ele></ele><time>2016-11-3T22:49:32Z</time></trkpt>
<trkpt lat="46.77232" lon="6.46645"><ele></ele><time>2016-11-3T22:49:35Z</time></trkpt>
<trkpt lat="46.77232" lon="6.46645"><ele></ele><time>2016-11-3T22:49:38Z</time></trkpt>
<trkpt lat="46.77232" lon="6.46645"><ele></ele><time>2016-11-3T22:49:41Z</time></trkpt>
<trkpt lat="46.77232" lon="6.46644"><ele></ele><time>2016-11-3T22:49:44Z</time></trkpt>
<trkpt lat="46.77233" lon="6.46647"><ele></ele><time>2016-11-3T22:49:47Z</time></trkpt>
<trkpt lat="46.77234" lon="6.46646"><ele></ele><time>2016-11-3T22:49:50Z</time></trkpt>
<trkpt lat="46.77234" lon="6.46644"><ele></ele><time>2016-11-3T22:49:53Z</time></trkpt>
<trkpt lat="46.77234" lon="6.46644"><ele></ele><time>2016-11-3T22:49:56Z</time></trkpt>
<trkpt lat="46.77233" lon="6.46644"><ele></ele><time>2016-11-3T22:49:59Z</time></trkpt>
<trkpt lat="46.77233" lon="6.46644"><ele></ele><time>2016-11-3T22:50:2Z</time></trkpt>
<trkpt lat="46.77233" lon="6.46645"><ele></ele><time>2016-11-3T22:50:5Z</time></trkpt>
<trkpt lat="46.77233" lon="6.46645"><ele></ele><time>2016-11-3T22:50:8Z</time></trkpt>
<trkpt lat="46.77233" lon="6.46645"><ele></ele><time>2016-11-3T22:50:11Z</time></trkpt>
<trkpt lat="46.77234" lon="6.46643"><ele></ele><time>2016-11-3T22:50:14Z</time></trkpt>
<trkpt lat="46.77233" lon="6.46644"><ele></ele><time>2016-11-3T22:50:17Z</time></trkpt>
<trkpt lat="46.77233" lon="6.46645"><ele></ele><time>2016-11-3T22:50:20Z</time></trkpt>
<trkpt lat="46.77234" lon="6.46644"><ele></ele><time>2016-11-3T22:50:23Z</time></trkpt>
<trkpt lat="46.77233" lon="6.46646"><ele></ele><time>2016-11-3T22:50:26Z</time></trkpt>
<trkpt lat="46.77232" lon="6.46646"><ele></ele><time>2016-11-3T22:50:29Z</time></trkpt>
<trkpt lat="46.77232" lon="6.46646"><ele></ele><time>2016-11-3T22:50:32Z</time></trkpt>
<trkpt lat="46.77232" lon="6.46645"><ele></ele><time>2016-11-3T22:50:35Z</time></trkpt>
<trkpt lat="46.77232" lon="6.46645"><ele></ele><time>2016-11-3T22:50:38Z</time></trkpt>
<trkpt lat="46.77233" lon="6.46645"><ele></ele><time>2016-11-3T22:50:41Z</time></trkpt>
<trkpt lat="46.77233" lon="6.46644"><ele></ele><time>2016-11-3T22:50:44Z</time></trkpt>
<trkpt lat="46.77233" lon="6.46646"><ele></ele><time>2016-11-3T22:50:47Z</time></trkpt>
<trkpt lat="46.77234" lon="6.46643"><ele></ele><time>2016-11-3T22:50:50Z</time></trkpt>
<trkpt lat="46.77233" lon="6.46644"><ele></ele><time>2016-11-3T22:50:53Z</time></trkpt>
<trkpt lat="46.77233" lon="6.46643"><ele></ele><time>2016-11-3T22:50:56Z</time></trkpt>
<trkpt lat="46.77233" lon="6.46644"><ele></ele><time>2016-11-3T22:50:59Z</time></trkpt>
<trkpt lat="46.77233" lon="6.46645"><ele></ele><time>2016-11-3T22:51:2Z</time></trkpt>
<trkpt lat="46.77233" lon="6.46644"><ele></ele><time>2016-11-3T22:51:5Z</time></trkpt>
<trkpt lat="46.77233" lon="6.46644"><ele></ele><time>2016-11-3T22:51:8Z</time></trkpt>
<trkpt lat="46.77233" lon="6.46644"><ele></ele><time>2016-11-3T22:51:11Z</time></trkpt>
<trkpt lat="46.77233" lon="6.46644"><ele></ele><time>2016-11-3T22:51:14Z</time></trkpt>
<trkpt lat="46.77232" lon="6.46644"><ele></ele><time>2016-11-3T22:51:17Z</time></trkpt>
<trkpt lat="46.77232" lon="6.46646"><ele></ele><time>2016-11-3T22:51:20Z</time></trkpt>
<trkpt lat="46.77232" lon="6.46646"><ele></ele><time>2016-11-3T22:51:23Z</time></trkpt>
<trkpt lat="46.77232" lon="6.46646"><ele></ele><time>2016-11-3T22:51:26Z</time></trkpt>
<trkpt lat="46.77232" lon="6.46646"><ele></ele><time>2016-11-3T22:51:29Z</time></trkpt>
<trkpt lat="46.77232" lon="6.46646"><ele></ele><time>2016-11-3T22:51:32Z</time></trkpt>
<trkpt lat="46.77232" lon="6.46646"><ele></ele><time>2016-11-3T22:51:35Z</time></trkpt>
<trkpt lat="46.77232" lon="6.46646"><ele></ele><time>2016-11-3T22:51:38Z</time></trkpt>
<trkpt lat="46.77232" lon="6.46646"><ele></ele><time>2016-11-3T22:51:41Z</time></trkpt>
<trkpt lat="46.77232" lon="6.46646"><ele></ele><time>2016-11-3T22:51:44Z</time></trkpt>
<trkpt lat="46.77232" lon="6.46646"><ele></ele><time>2016-11-3T22:51:47Z</time></trkpt>
<trkpt lat="46.77232" lon="6.46646"><ele></ele><time>2016-11-3T22:51:50Z</time></trkpt>
<trkpt lat="46.77232" lon="6.46646"><ele></ele><time>2016-11-3T22:51:53Z</time></trkpt>
<trkpt lat="46.77232" lon="6.46646"><ele></ele><time>2016-11-3T22:51:56Z</time></trkpt>
<trkpt lat="46.77232" lon="6.46646"><ele></ele><time>2016-11-3T22:51:59Z</time></trkpt>
<trkpt lat="46.77233" lon="6.46646"><ele></ele><time>2016-11-3T22:52:2Z</time></trkpt>
<trkpt lat="46.77233" lon="6.46646"><ele></ele><time>2016-11-3T22:52:5Z</time></trkpt>
<trkpt lat="46.77233" lon="6.46646"><ele></ele><time>2016-11-3T22:52:8Z</time></trkpt>
<trkpt lat="46.77233" lon="6.46647"><ele></ele><time>2016-11-3T22:52:11Z</time></trkpt>
<trkpt lat="46.77233" lon="6.46647"><ele></ele><time>2016-11-3T22:52:14Z</time></trkpt>
<trkpt lat="46.77233" lon="6.46647"><ele></ele><time>2016-11-3T22:52:17Z</time></trkpt>
<trkpt lat="46.77233" lon="6.46647"><ele></ele><time>2016-11-3T22:52:20Z</time></trkpt>
<trkpt lat="46.77233" lon="6.46647"><ele></ele><time>2016-11-3T22:52:23Z</time></trkpt>
<trkpt lat="46.77233" lon="6.46647"><ele></ele><time>2016-11-3T22:52:26Z</time></trkpt>
<trkpt lat="46.77233" lon="6.46647"><ele></ele><time>2016-11-3T22:52:29Z</time></trkpt>
<trkpt lat="46.77233" lon="6.46647"><ele></ele><time>2016-11-3T22:52:32Z</time></trkpt>
<trkpt lat="46.77233" lon="6.46647"><ele></ele><time>2016-11-3T22:52:35Z</time></trkpt>
<trkpt lat="46.77233" lon="6.46646"><ele></ele><time>2016-11-3T22:52:38Z</time></trkpt>
<trkpt lat="46.77232" lon="6.46646"><ele></ele><time>2016-11-3T22:52:41Z</time></trkpt>
<trkpt lat="46.77232" lon="6.46646"><ele></ele><time>2016-11-3T22:52:44Z</time></trkpt>
<trkpt lat="46.77232" lon="6.46645"><ele></ele><time>2016-11-3T22:52:47Z</time></trkpt>
<trkpt lat="46.77232" lon="6.46645"><ele></ele><time>2016-11-3T22:52:50Z</time></trkpt>
<trkpt lat="46.77232" lon="6.46645"><ele></ele><time>2016-11-3T22:52:53Z</time></trkpt>
<trkpt lat="46.77232" lon="6.46645"><ele></ele><time>2016-11-3T22:52:56Z</time></trkpt>
<trkpt lat="46.77232" lon="6.46644"><ele></ele><time>2016-11-3T22:52:59Z</time></trkpt>
<trkpt lat="46.77232" lon="6.46645"><ele></ele><time>2016-11-3T22:53:2Z</time></trkpt>
<trkpt lat="46.77232" lon="6.46645"><ele></ele><time>2016-11-3T22:53:5Z</time></trkpt>
<trkpt lat="46.77232" lon="6.46646"><ele></ele><time>2016-11-3T22:53:8Z</time></trkpt>
<trkpt lat="46.77232" lon="6.46646"><ele></ele><time>2016-11-3T22:53:11Z</time></trkpt>
<trkpt lat="46.77232" lon="6.46646"><ele></ele><time>2016-11-3T22:53:14Z</time></trkpt>
<trkpt lat="46.77233" lon="6.46645"><ele></ele><time>2016-11-3T22:53:17Z</time></trkpt>
<trkpt lat="46.77233" lon="6.46644"><ele></ele><time>2016-11-3T22:53:20Z</time></trkpt>
<trkpt lat="46.77232" lon="6.46644"><ele></ele><time>2016-11-3T22:53:23Z</time></trkpt>
<trkpt lat="46.77234" lon="6.46633"><ele></ele><time>2016-11-3T22:53:26Z</time></trkpt>
<trkpt lat="46.77233" lon="6.46625"><ele></ele><time>2016-11-3T22:53:29Z</time></trkpt>
<trkpt lat="46.77233" lon="6.46623"><ele></ele><time>2016-11-3T22:53:32Z</time></trkpt>
<trkpt lat="46.77233" lon="6.46622"><ele></ele><time>2016-11-3T22:53:35Z</time></trkpt>
<trkpt lat="46.77233" lon="6.46621"><ele></ele><time>2016-11-3T22:53:38Z</time></trkpt>
<trkpt lat="46.77233" lon="6.46645"><ele></ele><time>2016-11-3T22:53:41Z</time></trkpt>
<trkpt lat="46.77233" lon="6.46645"><ele></ele><time>2016-11-3T22:53:44Z</time></trkpt>
<trkpt lat="46.77232" lon="6.46645"><ele></ele><time>2016-11-3T22:53:47Z</time></trkpt>
<trkpt lat="46.77232" lon="6.46644"><ele></ele><time>2016-11-3T22:53:50Z</time></trkpt>
<trkpt lat="46.77233" lon="6.46645"><ele></ele><time>2016-11-3T22:53:53Z</time></trkpt>
<trkpt lat="46.77233" lon="6.46646"><ele></ele><time>2016-11-3T22:53:56Z</time></trkpt>
<trkpt lat="46.77233" lon="6.46646"><ele></ele><time>2016-11-3T22:53:59Z</time></trkpt>
<trkpt lat="46.77233" lon="6.46645"><ele></ele><time>2016-11-3T22:54:2Z</time></trkpt>
<trkpt lat="46.77233" lon="6.46644"><ele></ele><time>2016-11-3T22:54:5Z</time></trkpt>
<trkpt lat="46.77233" lon="6.46645"><ele></ele><time>2016-11-3T22:54:8Z</time></trkpt>
<trkpt lat="46.77232" lon="6.46644"><ele></ele><time>2016-11-3T22:54:11Z</time></trkpt>
<trkpt lat="46.77232" lon="6.46644"><ele></ele><time>2016-11-3T22:54:14Z</time></trkpt>
<trkpt lat="46.77233" lon="6.46645"><ele></ele><time>2016-11-3T22:54:17Z</time></trkpt>
<trkpt lat="46.77232" lon="6.46645"><ele></ele><time>2016-11-3T22:54:20Z</time></trkpt>
<trkpt lat="46.77232" lon="6.46644"><ele></ele><time>2016-11-3T22:54:23Z</time></trkpt>
<trkpt lat="46.77232" lon="6.46644"><ele></ele><time>2016-11-3T22:54:26Z</time></trkpt>
<trkpt lat="46.77232" lon="6.46645"><ele></ele><time>2016-11-3T22:54:29Z</time></trkpt>
<trkpt lat="46.77233" lon="6.46644"><ele></ele><time>2016-11-3T22:54:32Z</time></trkpt>
<trkpt lat="46.77233" lon="6.46643"><ele></ele><time>2016-11-3T22:54:35Z</time></trkpt>
<trkpt lat="46.77237" lon="6.46642"><ele></ele><time>2016-11-3T22:54:38Z</time></trkpt>
<trkpt lat="46.77242" lon="6.46644"><ele></ele><time>2016-11-3T22:54:41Z</time></trkpt>
<trkpt lat="46.77246" lon="6.46644"><ele></ele><time>2016-11-3T22:54:44Z</time></trkpt>
<trkpt lat="46.77249" lon="6.46645"><ele></ele><time>2016-11-3T22:54:47Z</time></trkpt>
<trkpt lat="46.77257" lon="6.46643"><ele></ele><time>2016-11-3T22:54:50Z</time></trkpt>
<trkpt lat="46.77267" lon="6.46654"><ele></ele><time>2016-11-3T22:54:53Z</time></trkpt>
<trkpt lat="46.77267" lon="6.46653"><ele></ele><time>2016-11-3T22:54:56Z</time></trkpt>
<trkpt lat="46.77267" lon="6.46653"><ele></ele><time>2016-11-3T22:54:59Z</time></trkpt>
<trkpt lat="46.77267" lon="6.46653"><ele></ele><time>2016-11-3T22:55:2Z</time></trkpt>
<trkpt lat="46.77267" lon="6.46652"><ele></ele><time>2016-11-3T22:55:5Z</time></trkpt>
<trkpt lat="46.7727" lon="6.4666"><ele></ele><time>2016-11-3T22:55:8Z</time></trkpt>
<trkpt lat="46.7728" lon="6.46682"><ele></ele><time>2016-11-3T22:55:11Z</time></trkpt>
<trkpt lat="46.77293" lon="6.46705"><ele></ele><time>2016-11-3T22:55:14Z</time></trkpt>
<trkpt lat="46.77301" lon="6.46729"><ele></ele><time>2016-11-3T22:55:17Z</time></trkpt>
<trkpt lat="46.77305" lon="6.46746"><ele></ele><time>2016-11-3T22:55:20Z</time></trkpt>
<trkpt lat="46.77307" lon="6.46756"><ele></ele><time>2016-11-3T22:55:23Z</time></trkpt>
<trkpt lat="46.77314" lon="6.46781"><ele></ele><time>2016-11-3T22:55:26Z</time></trkpt>
<trkpt lat="46.7732" lon="6.46804"><ele></ele><time>2016-11-3T22:55:29Z</time></trkpt>
<trkpt lat="46.77322" lon="6.46812"><ele></ele><time>2016-11-3T22:55:32Z</time></trkpt>
<trkpt lat="46.77324" lon="6.46819"><ele></ele><time>2016-11-3T22:55:35Z</time></trkpt>
<trkpt lat="46.77335" lon="6.46847"><ele></ele><time>2016-11-3T22:55:38Z</time></trkpt>
<trkpt lat="46.77346" lon="6.46871"><ele></ele><time>2016-11-3T22:55:41Z</time></trkpt>
<trkpt lat="46.77356" lon="6.46893"><ele></ele><time>2016-11-3T22:55:44Z</time></trkpt>
<trkpt lat="46.77362" lon="6.46908"><ele></ele><time>2016-11-3T22:55:47Z</time></trkpt>
<trkpt lat="46.77372" lon="6.46931"><ele></ele><time>2016-11-3T22:55:50Z</time></trkpt>
<trkpt lat="46.77377" lon="6.46948"><ele></ele><time>2016-11-3T22:55:53Z</time></trkpt>
<trkpt lat="46.7738" lon="6.46953"><ele></ele><time>2016-11-3T22:55:56Z</time></trkpt>
<trkpt lat="46.77384" lon="6.4696"><ele></ele><time>2016-11-3T22:55:59Z</time></trkpt>
<trkpt lat="46.7739" lon="6.46966"><ele></ele><time>2016-11-3T22:56:2Z</time></trkpt>
<trkpt lat="46.77389" lon="6.46966"><ele></ele><time>2016-11-3T22:56:5Z</time></trkpt>
<trkpt lat="46.77391" lon="6.46972"><ele></ele><time>2016-11-3T22:56:8Z</time></trkpt>
<trkpt lat="46.77394" lon="6.46976"><ele></ele><time>2016-11-3T22:56:11Z</time></trkpt>
<trkpt lat="46.77396" lon="6.46978"><ele></ele><time>2016-11-3T22:56:14Z</time></trkpt>
<trkpt lat="46.77399" lon="6.46978"><ele></ele><time>2016-11-3T22:56:17Z</time></trkpt>
<trkpt lat="46.77403" lon="6.46981"><ele></ele><time>2016-11-3T22:56:20Z</time></trkpt>
<trkpt lat="46.77404" lon="6.46982"><ele></ele><time>2016-11-3T22:56:23Z</time></trkpt>
<trkpt lat="46.77413" lon="6.46988"><ele></ele><time>2016-11-3T22:56:26Z</time></trkpt>
<trkpt lat="46.77428" lon="6.46997"><ele></ele><time>2016-11-3T22:56:29Z</time></trkpt>
<trkpt lat="46.77436" lon="6.47003"><ele></ele><time>2016-11-3T22:56:32Z</time></trkpt>
<trkpt lat="46.77446" lon="6.47013"><ele></ele><time>2016-11-3T22:56:35Z</time></trkpt>
<trkpt lat="46.77463" lon="6.47027"><ele></ele><time>2016-11-3T22:56:38Z</time></trkpt>
<trkpt lat="46.77465" lon="6.47027"><ele></ele><time>2016-11-3T22:56:41Z</time></trkpt>
<trkpt lat="46.77465" lon="6.47029"><ele></ele><time>2016-11-3T22:56:44Z</time></trkpt>
<trkpt lat="46.77468" lon="6.47033"><ele></ele><time>2016-11-3T22:56:47Z</time></trkpt>
<trkpt lat="46.77482" lon="6.47055"><ele></ele><time>2016-11-3T22:56:50Z</time></trkpt>
<trkpt lat="46.77487" lon="6.47069"><ele></ele><time>2016-11-3T22:56:53Z</time></trkpt>
<trkpt lat="46.77496" lon="6.47096"><ele></ele><time>2016-11-3T22:56:56Z</time></trkpt>
<trkpt lat="46.77506" lon="6.47121"><ele></ele><time>2016-11-3T22:56:59Z</time></trkpt>
<trkpt lat="46.77509" lon="6.47127"><ele></ele><time>2016-11-3T22:57:2Z</time></trkpt>
<trkpt lat="46.77515" lon="6.47139"><ele></ele><time>2016-11-3T22:57:5Z</time></trkpt>
<trkpt lat="46.7752" lon="6.47148"><ele></ele><time>2016-11-3T22:57:8Z</time></trkpt>
<trkpt lat="46.77524" lon="6.4716"><ele></ele><time>2016-11-3T22:57:11Z</time></trkpt>
<trkpt lat="46.77527" lon="6.47166"><ele></ele><time>2016-11-3T22:57:14Z</time></trkpt>
<trkpt lat="46.77535" lon="6.47191"><ele></ele><time>2016-11-3T22:57:17Z</time></trkpt>
<trkpt lat="46.77538" lon="6.47197"><ele></ele><time>2016-11-3T22:57:20Z</time></trkpt>
<trkpt lat="46.77543" lon="6.47204"><ele></ele><time>2016-11-3T22:57:23Z</time></trkpt>
<trkpt lat="46.77546" lon="6.4721"><ele></ele><time>2016-11-3T22:57:26Z</time></trkpt>
<trkpt lat="46.77547" lon="6.4722"><ele></ele><time>2016-11-3T22:57:29Z</time></trkpt>
<trkpt lat="46.77547" lon="6.47227"><ele></ele><time>2016-11-3T22:57:32Z</time></trkpt>
<trkpt lat="46.77551" lon="6.47241"><ele></ele><time>2016-11-3T22:57:35Z</time></trkpt>
<trkpt lat="46.77552" lon="6.47243"><ele></ele><time>2016-11-3T22:57:38Z</time></trkpt>
<trkpt lat="46.77559" lon="6.47246"><ele></ele><time>2016-11-3T22:57:41Z</time></trkpt>
<trkpt lat="46.77562" lon="6.47249"><ele></ele><time>2016-11-3T22:57:44Z</time></trkpt>
<trkpt lat="46.77571" lon="6.47272"><ele></ele><time>2016-11-3T22:57:47Z</time></trkpt>
<trkpt lat="46.77579" lon="6.47297"><ele></ele><time>2016-11-3T22:57:50Z</time></trkpt>
<trkpt lat="46.77581" lon="6.47307"><ele></ele><time>2016-11-3T22:57:53Z</time></trkpt>
<trkpt lat="46.77587" lon="6.47331"><ele></ele><time>2016-11-3T22:57:56Z</time></trkpt>
<trkpt lat="46.7759" lon="6.47337"><ele></ele><time>2016-11-3T22:57:59Z</time></trkpt>
<trkpt lat="46.77592" lon="6.4734"><ele></ele><time>2016-11-3T22:58:2Z</time></trkpt>
<trkpt lat="46.77593" lon="6.47342"><ele></ele><time>2016-11-3T22:58:5Z</time></trkpt>
<trkpt lat="46.77596" lon="6.47348"><ele></ele><time>2016-11-3T22:58:8Z</time></trkpt>
<trkpt lat="46.77599" lon="6.47353"><ele></ele><time>2016-11-3T22:58:11Z</time></trkpt>
<trkpt lat="46.77605" lon="6.47359"><ele></ele><time>2016-11-3T22:58:14Z</time></trkpt>
<trkpt lat="46.77608" lon="6.47364"><ele></ele><time>2016-11-3T22:58:17Z</time></trkpt>
<trkpt lat="46.77614" lon="6.47384"><ele></ele><time>2016-11-3T22:58:20Z</time></trkpt>
<trkpt lat="46.77626" lon="6.47407"><ele></ele><time>2016-11-3T22:58:23Z</time></trkpt>
<trkpt lat="46.77636" lon="6.4743"><ele></ele><time>2016-11-3T22:58:26Z</time></trkpt>
<trkpt lat="46.7764" lon="6.47438"><ele></ele><time>2016-11-3T22:58:29Z</time></trkpt>
<trkpt lat="46.77651" lon="6.47459"><ele></ele><time>2016-11-3T22:58:32Z</time></trkpt>
<trkpt lat="46.7766" lon="6.47484"><ele></ele><time>2016-11-3T22:58:35Z</time></trkpt>
<trkpt lat="46.77669" lon="6.47509"><ele></ele><time>2016-11-3T22:58:38Z</time></trkpt>
<trkpt lat="46.77682" lon="6.47533"><ele></ele><time>2016-11-3T22:58:41Z</time></trkpt>
<trkpt lat="46.77692" lon="6.47555"><ele></ele><time>2016-11-3T22:58:44Z</time></trkpt>
<trkpt lat="46.777" lon="6.4758"><ele></ele><time>2016-11-3T22:58:47Z</time></trkpt>
<trkpt lat="46.77708" lon="6.47603"><ele></ele><time>2016-11-3T22:58:50Z</time></trkpt>
<trkpt lat="46.77718" lon="6.47627"><ele></ele><time>2016-11-3T22:58:53Z</time></trkpt>
<trkpt lat="46.77729" lon="6.4765"><ele></ele><time>2016-11-3T22:58:56Z</time></trkpt>
<trkpt lat="46.77742" lon="6.47676"><ele></ele><time>2016-11-3T22:58:59Z</time></trkpt>
<trkpt lat="46.77753" lon="6.47702"><ele></ele><time>2016-11-3T22:59:2Z</time></trkpt>
<trkpt lat="46.77755" lon="6.47707"><ele></ele><time>2016-11-3T22:59:5Z</time></trkpt>
<trkpt lat="46.77759" lon="6.47714"><ele></ele><time>2016-11-3T22:59:8Z</time></trkpt>
<trkpt lat="46.77775" lon="6.47741"><ele></ele><time>2016-11-3T22:59:11Z</time></trkpt>
<trkpt lat="46.77785" lon="6.47764"><ele></ele><time>2016-11-3T22:59:14Z</time></trkpt>
<trkpt lat="46.77794" lon="6.4779"><ele></ele><time>2016-11-3T22:59:17Z</time></trkpt>
<trkpt lat="46.77803" lon="6.47804"><ele></ele><time>2016-11-3T22:59:20Z</time></trkpt>
<trkpt lat="46.77808" lon="6.47813"><ele></ele><time>2016-11-3T22:59:23Z</time></trkpt>
<trkpt lat="46.7781" lon="6.47817"><ele></ele><time>2016-11-3T22:59:26Z</time></trkpt>
<trkpt lat="46.77814" lon="6.47827"><ele></ele><time>2016-11-3T22:59:29Z</time></trkpt>
<trkpt lat="46.77826" lon="6.47853"><ele></ele><time>2016-11-3T22:59:32Z</time></trkpt>
<trkpt lat="46.77832" lon="6.47864"><ele></ele><time>2016-11-3T22:59:35Z</time></trkpt>
<trkpt lat="46.7784" lon="6.4788"><ele></ele><time>2016-11-3T22:59:38Z</time></trkpt>
<trkpt lat="46.77847" lon="6.47894"><ele></ele><time>2016-11-3T22:59:41Z</time></trkpt>
<trkpt lat="46.7785" lon="6.47902"><ele></ele><time>2016-11-3T22:59:44Z</time></trkpt>
<trkpt lat="46.77851" lon="6.47906"><ele></ele><time>2016-11-3T22:59:47Z</time></trkpt>
<trkpt lat="46.77852" lon="6.47909"><ele></ele><time>2016-11-3T22:59:50Z</time></trkpt>
<trkpt lat="46.77853" lon="6.47912"><ele></ele><time>2016-11-3T22:59:53Z</time></trkpt>
<trkpt lat="46.77862" lon="6.47927"><ele></ele><time>2016-11-3T22:59:56Z</time></trkpt>
<trkpt lat="46.77867" lon="6.47939"><ele></ele><time>2016-11-3T22:59:59Z</time></trkpt>
<trkpt lat="46.77871" lon="6.47945"><ele></ele><time>2016-11-3T23:0:2Z</time></trkpt>
<trkpt lat="46.77871" lon="6.47946"><ele></ele><time>2016-11-3T23:0:5Z</time></trkpt>
<trkpt lat="46.77876" lon="6.47956"><ele></ele><time>2016-11-3T23:0:8Z</time></trkpt>
<trkpt lat="46.77881" lon="6.47964"><ele></ele><time>2016-11-3T23:0:11Z</time></trkpt>
<trkpt lat="46.77883" lon="6.47965"><ele></ele><time>2016-11-3T23:0:14Z</time></trkpt>
<trkpt lat="46.77889" lon="6.47975"><ele></ele><time>2016-11-3T23:0:17Z</time></trkpt>
<trkpt lat="46.77893" lon="6.47983"><ele></ele><time>2016-11-3T23:0:20Z</time></trkpt>
<trkpt lat="46.77898" lon="6.4799"><ele></ele><time>2016-11-3T23:0:23Z</time></trkpt>
<trkpt lat="46.77899" lon="6.47991"><ele></ele><time>2016-11-3T23:0:26Z</time></trkpt>
<trkpt lat="46.779" lon="6.47993"><ele></ele><time>2016-11-3T23:0:29Z</time></trkpt>
<trkpt lat="46.77903" lon="6.47997"><ele></ele><time>2016-11-3T23:0:32Z</time></trkpt>
<trkpt lat="46.77902" lon="6.47998"><ele></ele><time>2016-11-3T23:0:35Z</time></trkpt>
<trkpt lat="46.77902" lon="6.48001"><ele></ele><time>2016-11-3T23:0:38Z</time></trkpt>
<trkpt lat="46.77904" lon="6.48006"><ele></ele><time>2016-11-3T23:0:41Z</time></trkpt>
<trkpt lat="46.77907" lon="6.48011"><ele></ele><time>2016-11-3T23:0:44Z</time></trkpt>
<trkpt lat="46.77911" lon="6.48018"><ele></ele><time>2016-11-3T23:0:47Z</time></trkpt>
<trkpt lat="46.77913" lon="6.48023"><ele></ele><time>2016-11-3T23:0:50Z</time></trkpt>
<trkpt lat="46.77914" lon="6.48024"><ele></ele><time>2016-11-3T23:0:53Z</time></trkpt>
<trkpt lat="46.77922" lon="6.48031"><ele></ele><time>2016-11-3T23:0:56Z</time></trkpt>
<trkpt lat="46.77923" lon="6.48031"><ele></ele><time>2016-11-3T23:0:59Z</time></trkpt>
<trkpt lat="46.77926" lon="6.48033"><ele></ele><time>2016-11-3T23:1:2Z</time></trkpt>
<trkpt lat="46.77929" lon="6.4804"><ele></ele><time>2016-11-3T23:1:5Z</time></trkpt>
<trkpt lat="46.77931" lon="6.48045"><ele></ele><time>2016-11-3T23:1:8Z</time></trkpt>
<trkpt lat="46.7793" lon="6.48053"><ele></ele><time>2016-11-3T23:1:11Z</time></trkpt>
<trkpt lat="46.77931" lon="6.48062"><ele></ele><time>2016-11-3T23:1:14Z</time></trkpt>
<trkpt lat="46.77937" lon="6.48071"><ele></ele><time>2016-11-3T23:1:17Z</time></trkpt>
<trkpt lat="46.7795" lon="6.48091"><ele></ele><time>2016-11-3T23:1:20Z</time></trkpt>
<trkpt lat="46.77952" lon="6.48097"><ele></ele><time>2016-11-3T23:1:23Z</time></trkpt>
<trkpt lat="46.77951" lon="6.481"><ele></ele><time>2016-11-3T23:1:26Z</time></trkpt>
<trkpt lat="46.7796" lon="6.48113"><ele></ele><time>2016-11-3T23:1:29Z</time></trkpt>
<trkpt lat="46.77969" lon="6.4813"><ele></ele><time>2016-11-3T23:1:32Z</time></trkpt>
<trkpt lat="46.77972" lon="6.48139"><ele></ele><time>2016-11-3T23:1:35Z</time></trkpt>
<trkpt lat="46.77973" lon="6.48142"><ele></ele><time>2016-11-3T23:1:38Z</time></trkpt>
<trkpt lat="46.77977" lon="6.48166"><ele></ele><time>2016-11-3T23:1:41Z</time></trkpt>
<trkpt lat="46.77977" lon="6.48168"><ele></ele><time>2016-11-3T23:1:44Z</time></trkpt>
<trkpt lat="46.77978" lon="6.4817"><ele></ele><time>2016-11-3T23:1:47Z</time></trkpt>
<trkpt lat="46.77991" lon="6.48189"><ele></ele><time>2016-11-3T23:1:50Z</time></trkpt>
<trkpt lat="46.77994" lon="6.48195"><ele></ele><time>2016-11-3T23:1:53Z</time></trkpt>
<trkpt lat="46.77999" lon="6.48209"><ele></ele><time>2016-11-3T23:1:56Z</time></trkpt>
<trkpt lat="46.78002" lon="6.48217"><ele></ele><time>2016-11-3T23:1:59Z</time></trkpt>
<trkpt lat="46.78008" lon="6.4822"><ele></ele><time>2016-11-3T23:2:2Z</time></trkpt>
<trkpt lat="46.78013" lon="6.48235"><ele></ele><time>2016-11-3T23:2:5Z</time></trkpt>
<trkpt lat="46.78022" lon="6.48255"><ele></ele><time>2016-11-3T23:2:8Z</time></trkpt>
<trkpt lat="46.78024" lon="6.48261"><ele></ele><time>2016-11-3T23:2:11Z</time></trkpt>
<trkpt lat="46.78029" lon="6.48281"><ele></ele><time>2016-11-3T23:2:14Z</time></trkpt>
<trkpt lat="46.78031" lon="6.48287"><ele></ele><time>2016-11-3T23:2:17Z</time></trkpt>
<trkpt lat="46.78032" lon="6.48289"><ele></ele><time>2016-11-3T23:2:20Z</time></trkpt>
<trkpt lat="46.78038" lon="6.48308"><ele></ele><time>2016-11-3T23:2:23Z</time></trkpt>
<trkpt lat="46.78038" lon="6.48311"><ele></ele><time>2016-11-3T23:2:26Z</time></trkpt>
<trkpt lat="46.7804" lon="6.48321"><ele></ele><time>2016-11-3T23:2:29Z</time></trkpt>
<trkpt lat="46.78047" lon="6.48322"><ele></ele><time>2016-11-3T23:2:32Z</time></trkpt>
<trkpt lat="46.78055" lon="6.48319"><ele></ele><time>2016-11-3T23:2:35Z</time></trkpt>
<trkpt lat="46.78058" lon="6.48328"><ele></ele><time>2016-11-3T23:2:38Z</time></trkpt>
<trkpt lat="46.7807" lon="6.48338"><ele></ele><time>2016-11-3T23:2:41Z</time></trkpt>
<trkpt lat="46.78075" lon="6.48352"><ele></ele><time>2016-11-3T23:2:44Z</time></trkpt>
<trkpt lat="46.78081" lon="6.48357"><ele></ele><time>2016-11-3T23:2:47Z</time></trkpt>
<trkpt lat="46.78083" lon="6.48368"><ele></ele><time>2016-11-3T23:2:50Z</time></trkpt>
<trkpt lat="46.78086" lon="6.48374"><ele></ele><time>2016-11-3T23:2:53Z</time></trkpt>
<trkpt lat="46.78093" lon="6.48386"><ele></ele><time>2016-11-3T23:2:56Z</time></trkpt>
<trkpt lat="46.78094" lon="6.48387"><ele></ele><time>2016-11-3T23:2:59Z</time></trkpt>
<trkpt lat="46.78099" lon="6.48396"><ele></ele><time>2016-11-3T23:3:2Z</time></trkpt>
<trkpt lat="46.78106" lon="6.48409"><ele></ele><time>2016-11-3T23:3:5Z</time></trkpt>
<trkpt lat="46.78107" lon="6.48411"><ele></ele><time>2016-11-3T23:3:8Z</time></trkpt>
<trkpt lat="46.78109" lon="6.48417"><ele></ele><time>2016-11-3T23:3:11Z</time></trkpt>
<trkpt lat="46.78114" lon="6.48426"><ele></ele><time>2016-11-3T23:3:14Z</time></trkpt>
<trkpt lat="46.78114" lon="6.48427"><ele></ele><time>2016-11-3T23:3:17Z</time></trkpt>
<trkpt lat="46.78119" lon="6.48437"><ele></ele><time>2016-11-3T23:3:20Z</time></trkpt>
<trkpt lat="46.78121" lon="6.48441"><ele></ele><time>2016-11-3T23:3:23Z</time></trkpt>
<trkpt lat="46.78128" lon="6.48462"><ele></ele><time>2016-11-3T23:3:26Z</time></trkpt>
<trkpt lat="46.78129" lon="6.48462"><ele></ele><time>2016-11-3T23:3:29Z</time></trkpt>
<trkpt lat="46.78129" lon="6.48463"><ele></ele><time>2016-11-3T23:3:32Z</time></trkpt>
<trkpt lat="46.78132" lon="6.48471"><ele></ele><time>2016-11-3T23:3:35Z</time></trkpt>
<trkpt lat="46.78132" lon="6.48471"><ele></ele><time>2016-11-3T23:3:38Z</time></trkpt>
<trkpt lat="46.78131" lon="6.48478"><ele></ele><time>2016-11-3T23:3:41Z</time></trkpt>
<trkpt lat="46.78132" lon="6.48485"><ele></ele><time>2016-11-3T23:3:44Z</time></trkpt>
<trkpt lat="46.78136" lon="6.4849"><ele></ele><time>2016-11-3T23:3:47Z</time></trkpt>
<trkpt lat="46.78138" lon="6.48499"><ele></ele><time>2016-11-3T23:3:50Z</time></trkpt>
<trkpt lat="46.78138" lon="6.48501"><ele></ele><time>2016-11-3T23:3:53Z</time></trkpt>
<trkpt lat="46.78136" lon="6.48512"><ele></ele><time>2016-11-3T23:3:56Z</time></trkpt>
<trkpt lat="46.78138" lon="6.48518"><ele></ele><time>2016-11-3T23:3:59Z</time></trkpt>
<trkpt lat="46.78138" lon="6.48519"><ele></ele><time>2016-11-3T23:4:2Z</time></trkpt>
<trkpt lat="46.78141" lon="6.48527"><ele></ele><time>2016-11-3T23:4:5Z</time></trkpt>
<trkpt lat="46.78144" lon="6.48529"><ele></ele><time>2016-11-3T23:4:8Z</time></trkpt>
<trkpt lat="46.78146" lon="6.4853"><ele></ele><time>2016-11-3T23:4:11Z</time></trkpt>
<trkpt lat="46.78147" lon="6.48531"><ele></ele><time>2016-11-3T23:4:14Z</time></trkpt>
<trkpt lat="46.78148" lon="6.48533"><ele></ele><time>2016-11-3T23:4:17Z</time></trkpt>
<trkpt lat="46.78151" lon="6.48541"><ele></ele><time>2016-11-3T23:4:20Z</time></trkpt>
<trkpt lat="46.78156" lon="6.48551"><ele></ele><time>2016-11-3T23:4:23Z</time></trkpt>
<trkpt lat="46.78157" lon="6.48553"><ele></ele><time>2016-11-3T23:4:26Z</time></trkpt>
<trkpt lat="46.78166" lon="6.48572"><ele></ele><time>2016-11-3T23:4:29Z</time></trkpt>
<trkpt lat="46.78171" lon="6.48577"><ele></ele><time>2016-11-3T23:4:32Z</time></trkpt>
<trkpt lat="46.78174" lon="6.48582"><ele></ele><time>2016-11-3T23:4:35Z</time></trkpt>
<trkpt lat="46.78175" lon="6.48585"><ele></ele><time>2016-11-3T23:4:38Z</time></trkpt>
<trkpt lat="46.7818" lon="6.48602"><ele></ele><time>2016-11-3T23:4:41Z</time></trkpt>
<trkpt lat="46.78179" lon="6.48607"><ele></ele><time>2016-11-3T23:4:44Z</time></trkpt>
<trkpt lat="46.78179" lon="6.48608"><ele></ele><time>2016-11-3T23:4:47Z</time></trkpt>
<trkpt lat="46.78181" lon="6.48614"><ele></ele><time>2016-11-3T23:4:50Z</time></trkpt>
<trkpt lat="46.78182" lon="6.48617"><ele></ele><time>2016-11-3T23:4:53Z</time></trkpt>
<trkpt lat="46.78183" lon="6.4862"><ele></ele><time>2016-11-3T23:4:56Z</time></trkpt>
<trkpt lat="46.78186" lon="6.48625"><ele></ele><time>2016-11-3T23:4:59Z</time></trkpt>
<trkpt lat="46.78187" lon="6.48629"><ele></ele><time>2016-11-3T23:5:2Z</time></trkpt>
<trkpt lat="46.78187" lon="6.4863"><ele></ele><time>2016-11-3T23:5:5Z</time></trkpt>
<trkpt lat="46.78188" lon="6.48631"><ele></ele><time>2016-11-3T23:5:8Z</time></trkpt>
<trkpt lat="46.7819" lon="6.48635"><ele></ele><time>2016-11-3T23:5:11Z</time></trkpt>
<trkpt lat="46.78191" lon="6.48636"><ele></ele><time>2016-11-3T23:5:14Z</time></trkpt>
<trkpt lat="46.78198" lon="6.48652"><ele></ele><time>2016-11-3T23:5:17Z</time></trkpt>
<trkpt lat="46.78198" lon="6.48653"><ele></ele><time>2016-11-3T23:5:20Z</time></trkpt>
<trkpt lat="46.78202" lon="6.48661"><ele></ele><time>2016-11-3T23:5:23Z</time></trkpt>
<trkpt lat="46.78203" lon="6.48662"><ele></ele><time>2016-11-3T23:5:26Z</time></trkpt>
<trkpt lat="46.78206" lon="6.48672"><ele></ele><time>2016-11-3T23:5:29Z</time></trkpt>
<trkpt lat="46.78211" lon="6.48682"><ele></ele><time>2016-11-3T23:5:32Z</time></trkpt>
<trkpt lat="46.78211" lon="6.48695"><ele></ele><time>2016-11-3T23:5:35Z</time></trkpt>
<trkpt lat="46.78218" lon="6.48718"><ele></ele><time>2016-11-3T23:5:38Z</time></trkpt>
<trkpt lat="46.78218" lon="6.4872"><ele></ele><time>2016-11-3T23:5:41Z</time></trkpt>
<trkpt lat="46.7822" lon="6.48722"><ele></ele><time>2016-11-3T23:5:44Z</time></trkpt>
<trkpt lat="46.78221" lon="6.48723"><ele></ele><time>2016-11-3T23:5:47Z</time></trkpt>
<trkpt lat="46.78229" lon="6.48732"><ele></ele><time>2016-11-3T23:5:50Z</time></trkpt>
<trkpt lat="46.7823" lon="6.48734"><ele></ele><time>2016-11-3T23:5:53Z</time></trkpt>
<trkpt lat="46.78231" lon="6.48736"><ele></ele><time>2016-11-3T23:5:56Z</time></trkpt>
<trkpt lat="46.78233" lon="6.4874"><ele></ele><time>2016-11-3T23:5:59Z</time></trkpt>
<trkpt lat="46.78237" lon="6.4875"><ele></ele><time>2016-11-3T23:6:2Z</time></trkpt>
<trkpt lat="46.78239" lon="6.48753"><ele></ele><time>2016-11-3T23:6:5Z</time></trkpt>
<trkpt lat="46.7824" lon="6.48758"><ele></ele><time>2016-11-3T23:6:8Z</time></trkpt>
<trkpt lat="46.78246" lon="6.48772"><ele></ele><time>2016-11-3T23:6:11Z</time></trkpt>
<trkpt lat="46.7825" lon="6.48774"><ele></ele><time>2016-11-3T23:6:14Z</time></trkpt>
<trkpt lat="46.78254" lon="6.48787"><ele></ele><time>2016-11-3T23:6:17Z</time></trkpt>
<trkpt lat="46.78263" lon="6.48797"><ele></ele><time>2016-11-3T23:6:20Z</time></trkpt>
<trkpt lat="46.78265" lon="6.488"><ele></ele><time>2016-11-3T23:6:23Z</time></trkpt>
<trkpt lat="46.7827" lon="6.48802"><ele></ele><time>2016-11-3T23:6:26Z</time></trkpt>
<trkpt lat="46.7828" lon="6.48818"><ele></ele><time>2016-11-3T23:6:29Z</time></trkpt>
<trkpt lat="46.7829" lon="6.48839"><ele></ele><time>2016-11-3T23:6:32Z</time></trkpt>
<trkpt lat="46.78291" lon="6.48841"><ele></ele><time>2016-11-3T23:6:35Z</time></trkpt>
<trkpt lat="46.78292" lon="6.48841"><ele></ele><time>2016-11-3T23:6:38Z</time></trkpt>
<trkpt lat="46.78296" lon="6.48849"><ele></ele><time>2016-11-3T23:6:41Z</time></trkpt>
<trkpt lat="46.78301" lon="6.48855"><ele></ele><time>2016-11-3T23:6:44Z</time></trkpt>
<trkpt lat="46.78301" lon="6.48858"><ele></ele><time>2016-11-3T23:6:47Z</time></trkpt>
<trkpt lat="46.78308" lon="6.4887"><ele></ele><time>2016-11-3T23:6:50Z</time></trkpt>
<trkpt lat="46.7831" lon="6.48873"><ele></ele><time>2016-11-3T23:6:53Z</time></trkpt>
<trkpt lat="46.78315" lon="6.4888"><ele></ele><time>2016-11-3T23:6:56Z</time></trkpt>
<trkpt lat="46.7832" lon="6.489"><ele></ele><time>2016-11-3T23:6:59Z</time></trkpt>
<trkpt lat="46.78321" lon="6.48901"><ele></ele><time>2016-11-3T23:7:2Z</time></trkpt>
<trkpt lat="46.78322" lon="6.48902"><ele></ele><time>2016-11-3T23:7:5Z</time></trkpt>
<trkpt lat="46.78324" lon="6.48908"><ele></ele><time>2016-11-3T23:7:8Z</time></trkpt>
<trkpt lat="46.78326" lon="6.48916"><ele></ele><time>2016-11-3T23:7:11Z</time></trkpt>
<trkpt lat="46.78329" lon="6.48921"><ele></ele><time>2016-11-3T23:7:14Z</time></trkpt>
<trkpt lat="46.78329" lon="6.48922"><ele></ele><time>2016-11-3T23:7:17Z</time></trkpt>
<trkpt lat="46.7833" lon="6.48923"><ele></ele><time>2016-11-3T23:7:20Z</time></trkpt>
<trkpt lat="46.78331" lon="6.48924"><ele></ele><time>2016-11-3T23:7:23Z</time></trkpt>
<trkpt lat="46.78333" lon="6.4893"><ele></ele><time>2016-11-3T23:7:26Z</time></trkpt>
<trkpt lat="46.78333" lon="6.48934"><ele></ele><time>2016-11-3T23:7:29Z</time></trkpt>
<trkpt lat="46.78337" lon="6.4894"><ele></ele><time>2016-11-3T23:7:32Z</time></trkpt>
<trkpt lat="46.78339" lon="6.48944"><ele></ele><time>2016-11-3T23:7:35Z</time></trkpt>
<trkpt lat="46.78339" lon="6.48945"><ele></ele><time>2016-11-3T23:7:38Z</time></trkpt>
<trkpt lat="46.78348" lon="6.48969"><ele></ele><time>2016-11-3T23:7:41Z</time></trkpt>
<trkpt lat="46.78353" lon="6.48985"><ele></ele><time>2016-11-3T23:7:44Z</time></trkpt>
<trkpt lat="46.78354" lon="6.48991"><ele></ele><time>2016-11-3T23:7:47Z</time></trkpt>
<trkpt lat="46.78359" lon="6.49009"><ele></ele><time>2016-11-3T23:7:50Z</time></trkpt>
<trkpt lat="46.78363" lon="6.49017"><ele></ele><time>2016-11-3T23:7:53Z</time></trkpt>
<trkpt lat="46.78361" lon="6.4902"><ele></ele><time>2016-11-3T23:7:56Z</time></trkpt>
<trkpt lat="46.78363" lon="6.49028"><ele></ele><time>2016-11-3T23:7:59Z</time></trkpt>
<trkpt lat="46.7837" lon="6.49034"><ele></ele><time>2016-11-3T23:8:2Z</time></trkpt>
<trkpt lat="46.7838" lon="6.49036"><ele></ele><time>2016-11-3T23:8:5Z</time></trkpt>
<trkpt lat="46.7838" lon="6.49034"><ele></ele><time>2016-11-3T23:8:8Z</time></trkpt>
<trkpt lat="46.78378" lon="6.49036"><ele></ele><time>2016-11-3T23:8:11Z</time></trkpt>
<trkpt lat="46.78376" lon="6.49039"><ele></ele><time>2016-11-3T23:8:14Z</time></trkpt>
<trkpt lat="46.78375" lon="6.49039"><ele></ele><time>2016-11-3T23:8:17Z</time></trkpt>
<trkpt lat="46.78376" lon="6.49038"><ele></ele><time>2016-11-3T23:8:20Z</time></trkpt>
<trkpt lat="46.78375" lon="6.49035"><ele></ele><time>2016-11-3T23:8:23Z</time></trkpt>
<trkpt lat="46.78375" lon="6.49035"><ele></ele><time>2016-11-3T23:8:26Z</time></trkpt>
<trkpt lat="46.78376" lon="6.49037"><ele></ele><time>2016-11-3T23:8:29Z</time></trkpt>
<trkpt lat="46.78377" lon="6.49039"><ele></ele><time>2016-11-3T23:8:32Z</time></trkpt>
<trkpt lat="46.78382" lon="6.49019"><ele></ele><time>2016-11-3T23:8:35Z</time></trkpt>
<trkpt lat="46.78378" lon="6.48984"><ele></ele><time>2016-11-3T23:8:38Z</time></trkpt>
<trkpt lat="46.78373" lon="6.48953"><ele></ele><time>2016-11-3T23:8:41Z</time></trkpt>
<trkpt lat="46.7837" lon="6.48925"><ele></ele><time>2016-11-3T23:8:44Z</time></trkpt>
<trkpt lat="46.78367" lon="6.48897"><ele></ele><time>2016-11-3T23:8:47Z</time></trkpt>
<trkpt lat="46.78365" lon="6.48877"><ele></ele><time>2016-11-3T23:8:50Z</time></trkpt>
<trkpt lat="46.78361" lon="6.48847"><ele></ele><time>2016-11-3T23:8:53Z</time></trkpt>
<trkpt lat="46.78355" lon="6.48815"><ele></ele><time>2016-11-3T23:8:56Z</time></trkpt>
<trkpt lat="46.78353" lon="6.48782"><ele></ele><time>2016-11-3T23:8:59Z</time></trkpt>
<trkpt lat="46.78351" lon="6.48754"><ele></ele><time>2016-11-3T23:9:2Z</time></trkpt>
<trkpt lat="46.78352" lon="6.4872"><ele></ele><time>2016-11-3T23:9:5Z</time></trkpt>
<trkpt lat="46.78351" lon="6.48676"><ele></ele><time>2016-11-3T23:9:8Z</time></trkpt>
<trkpt lat="46.7835" lon="6.48648"><ele></ele><time>2016-11-3T23:9:11Z</time></trkpt>
<trkpt lat="46.78349" lon="6.48627"><ele></ele><time>2016-11-3T23:9:14Z</time></trkpt>
<trkpt lat="46.7835" lon="6.48597"><ele></ele><time>2016-11-3T23:9:17Z</time></trkpt>
<trkpt lat="46.78352" lon="6.48567"><ele></ele><time>2016-11-3T23:9:20Z</time></trkpt>
<trkpt lat="46.78351" lon="6.48539"><ele></ele><time>2016-11-3T23:9:23Z</time></trkpt>
<trkpt lat="46.78351" lon="6.48525"><ele></ele><time>2016-11-3T23:9:26Z</time></trkpt>
<trkpt lat="46.78353" lon="6.4852"><ele></ele><time>2016-11-3T23:9:29Z</time></trkpt>
<trkpt lat="46.78359" lon="6.48517"><ele></ele><time>2016-11-3T23:9:32Z</time></trkpt>
<trkpt lat="46.78367" lon="6.48541"><ele></ele><time>2016-11-3T23:9:35Z</time></trkpt>
<trkpt lat="46.78372" lon="6.48562"><ele></ele><time>2016-11-3T23:9:38Z</time></trkpt>
<trkpt lat="46.78382" lon="6.48592"><ele></ele><time>2016-11-3T23:9:41Z</time></trkpt>
<trkpt lat="46.78389" lon="6.4862"><ele></ele><time>2016-11-3T23:9:44Z</time></trkpt>
<trkpt lat="46.78396" lon="6.48651"><ele></ele><time>2016-11-3T23:9:47Z</time></trkpt>
<trkpt lat="46.78405" lon="6.48685"><ele></ele><time>2016-11-3T23:9:50Z</time></trkpt>
<trkpt lat="46.78413" lon="6.48717"><ele></ele><time>2016-11-3T23:9:53Z</time></trkpt>
<trkpt lat="46.78419" lon="6.48738"><ele></ele><time>2016-11-3T23:9:56Z</time></trkpt>
<trkpt lat="46.78432" lon="6.48768"><ele></ele><time>2016-11-3T23:9:59Z</time></trkpt>
<trkpt lat="46.78447" lon="6.48796"><ele></ele><time>2016-11-3T23:10:2Z</time></trkpt>
<trkpt lat="46.78464" lon="6.4882"><ele></ele><time>2016-11-3T23:10:5Z</time></trkpt>
<trkpt lat="46.78482" lon="6.48842"><ele></ele><time>2016-11-3T23:10:8Z</time></trkpt>
<trkpt lat="46.78487" lon="6.4885"><ele></ele><time>2016-11-3T23:10:11Z</time></trkpt>
<trkpt lat="46.78498" lon="6.48872"><ele></ele><time>2016-11-3T23:10:14Z</time></trkpt>
<trkpt lat="46.78501" lon="6.4888"><ele></ele><time>2016-11-3T23:10:17Z</time></trkpt>
<trkpt lat="46.785" lon="6.48886"><ele></ele><time>2016-11-3T23:10:20Z</time></trkpt>
<trkpt lat="46.785" lon="6.48885"><ele></ele><time>2016-11-3T23:10:23Z</time></trkpt>
<trkpt lat="46.78501" lon="6.48883"><ele></ele><time>2016-11-3T23:10:26Z</time></trkpt>
<trkpt lat="46.785" lon="6.48883"><ele></ele><time>2016-11-3T23:10:29Z</time></trkpt>
<trkpt lat="46.785" lon="6.48882"><ele></ele><time>2016-11-3T23:10:32Z</time></trkpt>
<trkpt lat="46.785" lon="6.48881"><ele></ele><time>2016-11-3T23:10:35Z</time></trkpt>
<trkpt lat="46.78499" lon="6.48883"><ele></ele><time>2016-11-3T23:10:38Z</time></trkpt>
<trkpt lat="46.78499" lon="6.48884"><ele></ele><time>2016-11-3T23:10:41Z</time></trkpt>
<trkpt lat="46.78499" lon="6.48884"><ele></ele><time>2016-11-3T23:10:44Z</time></trkpt>
<trkpt lat="46.78499" lon="6.48883"><ele></ele><time>2016-11-3T23:10:47Z</time></trkpt>
<trkpt lat="46.78501" lon="6.48882"><ele></ele><time>2016-11-3T23:10:50Z</time></trkpt>
<trkpt lat="46.78502" lon="6.48881"><ele></ele><time>2016-11-3T23:10:53Z</time></trkpt>
<trkpt lat="46.78502" lon="6.48882"><ele></ele><time>2016-11-3T23:10:56Z</time></trkpt>
<trkpt lat="46.78502" lon="6.48885"><ele></ele><time>2016-11-3T23:10:59Z</time></trkpt>
<trkpt lat="46.78502" lon="6.48885"><ele></ele><time>2016-11-3T23:11:2Z</time></trkpt>
<trkpt lat="46.78501" lon="6.48886"><ele></ele><time>2016-11-3T23:11:5Z</time></trkpt>
<trkpt lat="46.78501" lon="6.48886"><ele></ele><time>2016-11-3T23:11:8Z</time></trkpt>
<trkpt lat="46.78501" lon="6.48886"><ele></ele><time>2016-11-3T23:11:11Z</time></trkpt>
<trkpt lat="46.78499" lon="6.48883"><ele></ele><time>2016-11-3T23:11:14Z</time></trkpt>
<trkpt lat="46.78499" lon="6.48885"><ele></ele><time>2016-11-3T23:11:17Z</time></trkpt>
<trkpt lat="46.78499" lon="6.48885"><ele></ele><time>2016-11-3T23:11:20Z</time></trkpt>
<trkpt lat="46.785" lon="6.48883"><ele></ele><time>2016-11-3T23:11:23Z</time></trkpt>
<trkpt lat="46.785" lon="6.48884"><ele></ele><time>2016-11-3T23:11:26Z</time></trkpt>
<trkpt lat="46.78502" lon="6.48882"><ele></ele><time>2016-11-3T23:11:29Z</time></trkpt>
<trkpt lat="46.78504" lon="6.48882"><ele></ele><time>2016-11-3T23:11:32Z</time></trkpt>
<trkpt lat="46.78504" lon="6.48882"><ele></ele><time>2016-11-3T23:11:35Z</time></trkpt>
<trkpt lat="46.78502" lon="6.48883"><ele></ele><time>2016-11-3T23:11:38Z</time></trkpt>
<trkpt lat="46.78506" lon="6.48895"><ele></ele><time>2016-11-3T23:11:41Z</time></trkpt>
<trkpt lat="46.78515" lon="6.48918"><ele></ele><time>2016-11-3T23:11:44Z</time></trkpt>
<trkpt lat="46.78526" lon="6.48947"><ele></ele><time>2016-11-3T23:11:47Z</time></trkpt>
<trkpt lat="46.78537" lon="6.48975"><ele></ele><time>2016-11-3T23:11:50Z</time></trkpt>
<trkpt lat="46.78549" lon="6.49003"><ele></ele><time>2016-11-3T23:11:53Z</time></trkpt>
<trkpt lat="46.78562" lon="6.49033"><ele></ele><time>2016-11-3T23:11:56Z</time></trkpt>
<trkpt lat="46.7857" lon="6.49051"><ele></ele><time>2016-11-3T23:11:59Z</time></trkpt>
<trkpt lat="46.78582" lon="6.49079"><ele></ele><time>2016-11-3T23:12:2Z</time></trkpt>
<trkpt lat="46.78594" lon="6.4911"><ele></ele><time>2016-11-3T23:12:5Z</time></trkpt>
<trkpt lat="46.78607" lon="6.4914"><ele></ele><time>2016-11-3T23:12:8Z</time></trkpt>
<trkpt lat="46.78619" lon="6.49169"><ele></ele><time>2016-11-3T23:12:11Z</time></trkpt>
<trkpt lat="46.78633" lon="6.49197"><ele></ele><time>2016-11-3T23:12:14Z</time></trkpt>
<trkpt lat="46.78646" lon="6.49224"><ele></ele><time>2016-11-3T23:12:17Z</time></trkpt>
<trkpt lat="46.7866" lon="6.49252"><ele></ele><time>2016-11-3T23:12:20Z</time></trkpt>
<trkpt lat="46.78674" lon="6.49282"><ele></ele><time>2016-11-3T23:12:23Z</time></trkpt>
<trkpt lat="46.78684" lon="6.49314"><ele></ele><time>2016-11-3T23:12:26Z</time></trkpt>
<trkpt lat="46.78694" lon="6.49346"><ele></ele><time>2016-11-3T23:12:29Z</time></trkpt>
<trkpt lat="46.787" lon="6.49366"><ele></ele><time>2016-11-3T23:12:32Z</time></trkpt>
<trkpt lat="46.78707" lon="6.49397"><ele></ele><time>2016-11-3T23:12:35Z</time></trkpt>
<trkpt lat="46.7871" lon="6.49417"><ele></ele><time>2016-11-3T23:12:38Z</time></trkpt>
<trkpt lat="46.78716" lon="6.49448"><ele></ele><time>2016-11-3T23:12:41Z</time></trkpt>
<trkpt lat="46.78722" lon="6.4948"><ele></ele><time>2016-11-3T23:12:44Z</time></trkpt>
<trkpt lat="46.78727" lon="6.49512"><ele></ele><time>2016-11-3T23:12:47Z</time></trkpt>
<trkpt lat="46.7873" lon="6.49546"><ele></ele><time>2016-11-3T23:12:50Z</time></trkpt>
<trkpt lat="46.78736" lon="6.4958"><ele></ele><time>2016-11-3T23:12:53Z</time></trkpt>
<trkpt lat="46.78745" lon="6.49614"><ele></ele><time>2016-11-3T23:12:56Z</time></trkpt>
<trkpt lat="46.78751" lon="6.49637"><ele></ele><time>2016-11-3T23:12:59Z</time></trkpt>
<trkpt lat="46.78759" lon="6.49672"><ele></ele><time>2016-11-3T23:13:2Z</time></trkpt>
<trkpt lat="46.78768" lon="6.49705"><ele></ele><time>2016-11-3T23:13:5Z</time></trkpt>
<trkpt lat="46.78776" lon="6.49735"><ele></ele><time>2016-11-3T23:13:8Z</time></trkpt>
<trkpt lat="46.78781" lon="6.49751"><ele></ele><time>2016-11-3T23:13:11Z</time></trkpt>
<trkpt lat="46.78785" lon="6.49779"><ele></ele><time>2016-11-3T23:13:14Z</time></trkpt>
<trkpt lat="46.7878" lon="6.49796"><ele></ele><time>2016-11-3T23:13:17Z</time></trkpt>
<trkpt lat="46.78774" lon="6.4981"><ele></ele><time>2016-11-3T23:13:20Z</time></trkpt>
<trkpt lat="46.78785" lon="6.49828"><ele></ele><time>2016-11-3T23:13:23Z</time></trkpt>
<trkpt lat="46.78803" lon="6.49819"><ele></ele><time>2016-11-3T23:13:26Z</time></trkpt>
<trkpt lat="46.78818" lon="6.49803"><ele></ele><time>2016-11-3T23:13:29Z</time></trkpt>
<trkpt lat="46.78828" lon="6.49781"><ele></ele><time>2016-11-3T23:13:32Z</time></trkpt>
<trkpt lat="46.78832" lon="6.49765"><ele></ele><time>2016-11-3T23:13:35Z</time></trkpt>
<trkpt lat="46.78838" lon="6.49753"><ele></ele><time>2016-11-3T23:13:38Z</time></trkpt>
<trkpt lat="46.78855" lon="6.49744"><ele></ele><time>2016-11-3T23:13:41Z</time></trkpt>
<trkpt lat="46.78875" lon="6.49746"><ele></ele><time>2016-11-3T23:13:44Z</time></trkpt>
<trkpt lat="46.78883" lon="6.49746"><ele></ele><time>2016-11-3T23:13:47Z</time></trkpt>
<trkpt lat="46.78902" lon="6.49733"><ele></ele><time>2016-11-3T23:13:50Z</time></trkpt>
<trkpt lat="46.78918" lon="6.49708"><ele></ele><time>2016-11-3T23:13:53Z</time></trkpt>
<trkpt lat="46.78933" lon="6.49686"><ele></ele><time>2016-11-3T23:13:56Z</time></trkpt>
<trkpt lat="46.78938" lon="6.49679"><ele></ele><time>2016-11-3T23:13:59Z</time></trkpt>
<trkpt lat="46.78944" lon="6.49673"><ele></ele><time>2016-11-3T23:14:2Z</time></trkpt>
<trkpt lat="46.78964" lon="6.49674"><ele></ele><time>2016-11-3T23:14:5Z</time></trkpt>
<trkpt lat="46.78982" lon="6.49694"><ele></ele><time>2016-11-3T23:14:8Z</time></trkpt>
<trkpt lat="46.78992" lon="6.49712"><ele></ele><time>2016-11-3T23:14:11Z</time></trkpt>
<trkpt lat="46.79007" lon="6.4974"><ele></ele><time>2016-11-3T23:14:14Z</time></trkpt>
<trkpt lat="46.79011" lon="6.4975"><ele></ele><time>2016-11-3T23:14:17Z</time></trkpt>
<trkpt lat="46.79022" lon="6.49784"><ele></ele><time>2016-11-3T23:14:20Z</time></trkpt>
<trkpt lat="46.79032" lon="6.4982"><ele></ele><time>2016-11-3T23:14:23Z</time></trkpt>
<trkpt lat="46.79036" lon="6.49831"><ele></ele><time>2016-11-3T23:14:26Z</time></trkpt>
<trkpt lat="46.79045" lon="6.49851"><ele></ele><time>2016-11-3T23:14:29Z</time></trkpt>
<trkpt lat="46.79063" lon="6.49877"><ele></ele><time>2016-11-3T23:14:32Z</time></trkpt>
<trkpt lat="46.79079" lon="6.499"><ele></ele><time>2016-11-3T23:14:35Z</time></trkpt>
<trkpt lat="46.79096" lon="6.49904"><ele></ele><time>2016-11-3T23:14:38Z</time></trkpt>
<trkpt lat="46.79102" lon="6.49902"><ele></ele><time>2016-11-3T23:14:41Z</time></trkpt>
<trkpt lat="46.79108" lon="6.499"><ele></ele><time>2016-11-3T23:14:44Z</time></trkpt>
<trkpt lat="46.7913" lon="6.49908"><ele></ele><time>2016-11-3T23:14:47Z</time></trkpt>
<trkpt lat="46.79135" lon="6.49916"><ele></ele><time>2016-11-3T23:14:50Z</time></trkpt>
<trkpt lat="46.79137" lon="6.49919"><ele></ele><time>2016-11-3T23:14:53Z</time></trkpt>
<trkpt lat="46.79151" lon="6.4994"><ele></ele><time>2016-11-3T23:14:56Z</time></trkpt>
<trkpt lat="46.79153" lon="6.49953"><ele></ele><time>2016-11-3T23:14:59Z</time></trkpt>
<trkpt lat="46.79138" lon="6.49985"><ele></ele><time>2016-11-3T23:15:2Z</time></trkpt>
<trkpt lat="46.79135" lon="6.49995"><ele></ele><time>2016-11-3T23:15:5Z</time></trkpt>
<trkpt lat="46.79142" lon="6.50032"><ele></ele><time>2016-11-3T23:15:8Z</time></trkpt>
<trkpt lat="46.79161" lon="6.5006"><ele></ele><time>2016-11-3T23:15:11Z</time></trkpt>
<trkpt lat="46.79178" lon="6.5007"><ele></ele><time>2016-11-3T23:15:14Z</time></trkpt>
<trkpt lat="46.79197" lon="6.50073"><ele></ele><time>2016-11-3T23:15:17Z</time></trkpt>
<trkpt lat="46.79208" lon="6.50074"><ele></ele><time>2016-11-3T23:15:20Z</time></trkpt>
<trkpt lat="46.79218" lon="6.50077"><ele></ele><time>2016-11-3T23:15:23Z</time></trkpt>
<trkpt lat="46.79238" lon="6.50091"><ele></ele><time>2016-11-3T23:15:26Z</time></trkpt>
<trkpt lat="46.79258" lon="6.50109"><ele></ele><time>2016-11-3T23:15:29Z</time></trkpt>
<trkpt lat="46.79278" lon="6.50129"><ele></ele><time>2016-11-3T23:15:32Z</time></trkpt>
<trkpt lat="46.79297" lon="6.50153"><ele></ele><time>2016-11-3T23:15:35Z</time></trkpt>
<trkpt lat="46.79317" lon="6.50175"><ele></ele><time>2016-11-3T23:15:38Z</time></trkpt>
<trkpt lat="46.79336" lon="6.50195"><ele></ele><time>2016-11-3T23:15:41Z</time></trkpt>
<trkpt lat="46.79343" lon="6.50205"><ele></ele><time>2016-11-3T23:15:44Z</time></trkpt>
<trkpt lat="46.79356" lon="6.50227"><ele></ele><time>2016-11-3T23:15:47Z</time></trkpt>
<trkpt lat="46.79355" lon="6.50255"><ele></ele><time>2016-11-3T23:15:50Z</time></trkpt>
<trkpt lat="46.79354" lon="6.5027"><ele></ele><time>2016-11-3T23:15:53Z</time></trkpt>
<trkpt lat="46.79355" lon="6.50299"><ele></ele><time>2016-11-3T23:15:56Z</time></trkpt>
<trkpt lat="46.79359" lon="6.50327"><ele></ele><time>2016-11-3T23:15:59Z</time></trkpt>
<trkpt lat="46.79367" lon="6.50351"><ele></ele><time>2016-11-3T23:16:2Z</time></trkpt>
<trkpt lat="46.79379" lon="6.50375"><ele></ele><time>2016-11-3T23:16:5Z</time></trkpt>
<trkpt lat="46.79391" lon="6.50401"><ele></ele><time>2016-11-3T23:16:8Z</time></trkpt>
<trkpt lat="46.79404" lon="6.50429"><ele></ele><time>2016-11-3T23:16:11Z</time></trkpt>
<trkpt lat="46.79417" lon="6.50457"><ele></ele><time>2016-11-3T23:16:14Z</time></trkpt>
<trkpt lat="46.7943" lon="6.50488"><ele></ele><time>2016-11-3T23:16:17Z</time></trkpt>
<trkpt lat="46.79443" lon="6.50518"><ele></ele><time>2016-11-3T23:16:20Z</time></trkpt>
<trkpt lat="46.79457" lon="6.50548"><ele></ele><time>2016-11-3T23:16:23Z</time></trkpt>
<trkpt lat="46.79469" lon="6.50574"><ele></ele><time>2016-11-3T23:16:26Z</time></trkpt>
<trkpt lat="46.79491" lon="6.50594"><ele></ele><time>2016-11-3T23:16:29Z</time></trkpt>
<trkpt lat="46.79486" lon="6.50615"><ele></ele><time>2016-11-3T23:16:32Z</time></trkpt>
<trkpt lat="46.79464" lon="6.50603"><ele></ele><time>2016-11-3T23:16:35Z</time></trkpt>
<trkpt lat="46.79443" lon="6.50587"><ele></ele><time>2016-11-3T23:16:38Z</time></trkpt>
<trkpt lat="46.79427" lon="6.50574"><ele></ele><time>2016-11-3T23:16:41Z</time></trkpt>
<trkpt lat="46.7941" lon="6.50559"><ele></ele><time>2016-11-3T23:16:44Z</time></trkpt>
<trkpt lat="46.79393" lon="6.50541"><ele></ele><time>2016-11-3T23:16:47Z</time></trkpt>
<trkpt lat="46.79378" lon="6.50523"><ele></ele><time>2016-11-3T23:16:50Z</time></trkpt>
<trkpt lat="46.79371" lon="6.50515"><ele></ele><time>2016-11-3T23:16:53Z</time></trkpt>
<trkpt lat="46.79357" lon="6.50501"><ele></ele><time>2016-11-3T23:16:56Z</time></trkpt>
<trkpt lat="46.7935" lon="6.50498"><ele></ele><time>2016-11-3T23:16:59Z</time></trkpt>
<trkpt lat="46.79338" lon="6.50508"><ele></ele><time>2016-11-3T23:17:2Z</time></trkpt>
<trkpt lat="46.79343" lon="6.50536"><ele></ele><time>2016-11-3T23:17:5Z</time></trkpt>
<trkpt lat="46.79347" lon="6.50548"><ele></ele><time>2016-11-3T23:17:8Z</time></trkpt>
<trkpt lat="46.79355" lon="6.50571"><ele></ele><time>2016-11-3T23:17:11Z</time></trkpt>
<trkpt lat="46.79366" lon="6.50597"><ele></ele><time>2016-11-3T23:17:14Z</time></trkpt>
<trkpt lat="46.7938" lon="6.50625"><ele></ele><time>2016-11-3T23:17:17Z</time></trkpt>
<trkpt lat="46.79396" lon="6.50656"><ele></ele><time>2016-11-3T23:17:20Z</time></trkpt>
<trkpt lat="46.79412" lon="6.50685"><ele></ele><time>2016-11-3T23:17:23Z</time></trkpt>
<trkpt lat="46.79429" lon="6.50714"><ele></ele><time>2016-11-3T23:17:26Z</time></trkpt>
<trkpt lat="46.79446" lon="6.50743"><ele></ele><time>2016-11-3T23:17:29Z</time></trkpt>
<trkpt lat="46.79463" lon="6.50773"><ele></ele><time>2016-11-3T23:17:32Z</time></trkpt>
<trkpt lat="46.79479" lon="6.50803"><ele></ele><time>2016-11-3T23:17:35Z</time></trkpt>
<trkpt lat="46.79496" lon="6.50835"><ele></ele><time>2016-11-3T23:17:38Z</time></trkpt>
<trkpt lat="46.79512" lon="6.50867"><ele></ele><time>2016-11-3T23:17:41Z</time></trkpt>
<trkpt lat="46.79524" lon="6.50903"><ele></ele><time>2016-11-3T23:17:44Z</time></trkpt>
<trkpt lat="46.79535" lon="6.50941"><ele></ele><time>2016-11-3T23:17:47Z</time></trkpt>
<trkpt lat="46.79545" lon="6.50977"><ele></ele><time>2016-11-3T23:17:50Z</time></trkpt>
<trkpt lat="46.79552" lon="6.51009"><ele></ele><time>2016-11-3T23:17:53Z</time></trkpt>
<trkpt lat="46.79548" lon="6.51041"><ele></ele><time>2016-11-3T23:17:56Z</time></trkpt>
<trkpt lat="46.79537" lon="6.5107"><ele></ele><time>2016-11-3T23:17:59Z</time></trkpt>
<trkpt lat="46.79527" lon="6.51099"><ele></ele><time>2016-11-3T23:18:2Z</time></trkpt>
<trkpt lat="46.7952" lon="6.51132"><ele></ele><time>2016-11-3T23:18:5Z</time></trkpt>
<trkpt lat="46.79517" lon="6.51166"><ele></ele><time>2016-11-3T23:18:8Z</time></trkpt>
<trkpt lat="46.7952" lon="6.51203"><ele></ele><time>2016-11-3T23:18:11Z</time></trkpt>
<trkpt lat="46.79523" lon="6.51221"><ele></ele><time>2016-11-3T23:18:14Z</time></trkpt>
<trkpt lat="46.79529" lon="6.51257"><ele></ele><time>2016-11-3T23:18:17Z</time></trkpt>
<trkpt lat="46.79533" lon="6.51274"><ele></ele><time>2016-11-3T23:18:20Z</time></trkpt>
<trkpt lat="46.79544" lon="6.51306"><ele></ele><time>2016-11-3T23:18:23Z</time></trkpt>
<trkpt lat="46.79559" lon="6.51327"><ele></ele><time>2016-11-3T23:18:26Z</time></trkpt>
<trkpt lat="46.79577" lon="6.51338"><ele></ele><time>2016-11-3T23:18:29Z</time></trkpt>
<trkpt lat="46.79599" lon="6.5134"><ele></ele><time>2016-11-3T23:18:32Z</time></trkpt>
<trkpt lat="46.7961" lon="6.51339"><ele></ele><time>2016-11-3T23:18:35Z</time></trkpt>
<trkpt lat="46.79629" lon="6.51342"><ele></ele><time>2016-11-3T23:18:38Z</time></trkpt>
<trkpt lat="46.79648" lon="6.5136"><ele></ele><time>2016-11-3T23:18:41Z</time></trkpt>
<trkpt lat="46.79664" lon="6.51382"><ele></ele><time>2016-11-3T23:18:44Z</time></trkpt>
<trkpt lat="46.79689" lon="6.51384"><ele></ele><time>2016-11-3T23:18:47Z</time></trkpt>
<trkpt lat="46.79698" lon="6.51383"><ele></ele><time>2016-11-3T23:18:50Z</time></trkpt>
<trkpt lat="46.79707" lon="6.51384"><ele></ele><time>2016-11-3T23:18:53Z</time></trkpt>
<trkpt lat="46.79722" lon="6.51393"><ele></ele><time>2016-11-3T23:18:56Z</time></trkpt>
<trkpt lat="46.79723" lon="6.51427"><ele></ele><time>2016-11-3T23:18:59Z</time></trkpt>
<trkpt lat="46.7971" lon="6.51451"><ele></ele><time>2016-11-3T23:19:2Z</time></trkpt>
<trkpt lat="46.79692" lon="6.51471"><ele></ele><time>2016-11-3T23:19:5Z</time></trkpt>
<trkpt lat="46.79682" lon="6.5148"><ele></ele><time>2016-11-3T23:19:8Z</time></trkpt>
<trkpt lat="46.79672" lon="6.5149"><ele></ele><time>2016-11-3T23:19:11Z</time></trkpt>
<trkpt lat="46.79658" lon="6.51518"><ele></ele><time>2016-11-3T23:19:14Z</time></trkpt>
<trkpt lat="46.79648" lon="6.51551"><ele></ele><time>2016-11-3T23:19:17Z</time></trkpt>
<trkpt lat="46.79643" lon="6.5159"><ele></ele><time>2016-11-3T23:19:20Z</time></trkpt>
<trkpt lat="46.79636" lon="6.5163"><ele></ele><time>2016-11-3T23:19:23Z</time></trkpt>
<trkpt lat="46.7963" lon="6.5167"><ele></ele><time>2016-11-3T23:19:26Z</time></trkpt>
<trkpt lat="46.79626" lon="6.5171"><ele></ele><time>2016-11-3T23:19:29Z</time></trkpt>
<trkpt lat="46.79624" lon="6.5175"><ele></ele><time>2016-11-3T23:19:32Z</time></trkpt>
<trkpt lat="46.79623" lon="6.51769"><ele></ele><time>2016-11-3T23:19:35Z</time></trkpt>
<trkpt lat="46.79615" lon="6.51806"><ele></ele><time>2016-11-3T23:19:38Z</time></trkpt>
<trkpt lat="46.79601" lon="6.51839"><ele></ele><time>2016-11-3T23:19:41Z</time></trkpt>
<trkpt lat="46.79586" lon="6.51868"><ele></ele><time>2016-11-3T23:19:44Z</time></trkpt>
<trkpt lat="46.79575" lon="6.51894"><ele></ele><time>2016-11-3T23:19:47Z</time></trkpt>
<trkpt lat="46.79567" lon="6.51922"><ele></ele><time>2016-11-3T23:19:50Z</time></trkpt>
<trkpt lat="46.79562" lon="6.51951"><ele></ele><time>2016-11-3T23:19:53Z</time></trkpt>
<trkpt lat="46.79558" lon="6.51961"><ele></ele><time>2016-11-3T23:19:56Z</time></trkpt>
<trkpt lat="46.79537" lon="6.51967"><ele></ele><time>2016-11-3T23:19:59Z</time></trkpt>
<trkpt lat="46.7953" lon="6.51939"><ele></ele><time>2016-11-3T23:20:2Z</time></trkpt>
<trkpt lat="46.79542" lon="6.51903"><ele></ele><time>2016-11-3T23:20:5Z</time></trkpt>
<trkpt lat="46.79546" lon="6.51872"><ele></ele><time>2016-11-3T23:20:8Z</time></trkpt>
<trkpt lat="46.79546" lon="6.51839"><ele></ele><time>2016-11-3T23:20:11Z</time></trkpt>
<trkpt lat="46.79539" lon="6.51804"><ele></ele><time>2016-11-3T23:20:14Z</time></trkpt>
<trkpt lat="46.79525" lon="6.51769"><ele></ele><time>2016-11-3T23:20:17Z</time></trkpt>
<trkpt lat="46.7952" lon="6.51752"><ele></ele><time>2016-11-3T23:20:20Z</time></trkpt>
<trkpt lat="46.79514" lon="6.51721"><ele></ele><time>2016-11-3T23:20:23Z</time></trkpt>
<trkpt lat="46.79506" lon="6.51698"><ele></ele><time>2016-11-3T23:20:26Z</time></trkpt>
<trkpt lat="46.79485" lon="6.51693"><ele></ele><time>2016-11-3T23:20:29Z</time></trkpt>
<trkpt lat="46.79475" lon="6.51711"><ele></ele><time>2016-11-3T23:20:32Z</time></trkpt>
<trkpt lat="46.79468" lon="6.51749"><ele></ele><time>2016-11-3T23:20:35Z</time></trkpt>
<trkpt lat="46.79471" lon="6.51778"><ele></ele><time>2016-11-3T23:20:38Z</time></trkpt>
<trkpt lat="46.7948" lon="6.51804"><ele></ele><time>2016-11-3T23:20:41Z</time></trkpt>
<trkpt lat="46.79482" lon="6.51832"><ele></ele><time>2016-11-3T23:20:44Z</time></trkpt>
<trkpt lat="46.79472" lon="6.5186"><ele></ele><time>2016-11-3T23:20:47Z</time></trkpt>
<trkpt lat="46.79461" lon="6.51886"><ele></ele><time>2016-11-3T23:20:50Z</time></trkpt>
<trkpt lat="46.79454" lon="6.51898"><ele></ele><time>2016-11-3T23:20:53Z</time></trkpt>
<trkpt lat="46.79436" lon="6.51919"><ele></ele><time>2016-11-3T23:20:56Z</time></trkpt>
<trkpt lat="46.79414" lon="6.51933"><ele></ele><time>2016-11-3T23:20:59Z</time></trkpt>
<trkpt lat="46.79402" lon="6.51938"><ele></ele><time>2016-11-3T23:21:2Z</time></trkpt>
<trkpt lat="46.79379" lon="6.51944"><ele></ele><time>2016-11-3T23:21:5Z</time></trkpt>
<trkpt lat="46.79358" lon="6.51943"><ele></ele><time>2016-11-3T23:21:8Z</time></trkpt>
<trkpt lat="46.79348" lon="6.51943"><ele></ele><time>2016-11-3T23:21:11Z</time></trkpt>
<trkpt lat="46.79331" lon="6.51953"><ele></ele><time>2016-11-3T23:21:14Z</time></trkpt>
<trkpt lat="46.79319" lon="6.51975"><ele></ele><time>2016-11-3T23:21:17Z</time></trkpt>
<trkpt lat="46.79314" lon="6.51988"><ele></ele><time>2016-11-3T23:21:20Z</time></trkpt>
<trkpt lat="46.7931" lon="6.52002"><ele></ele><time>2016-11-3T23:21:23Z</time></trkpt>
<trkpt lat="46.79307" lon="6.52016"><ele></ele><time>2016-11-3T23:21:26Z</time></trkpt>
<trkpt lat="46.79302" lon="6.52041"><ele></ele><time>2016-11-3T23:21:29Z</time></trkpt>
<trkpt lat="46.79284" lon="6.52042"><ele></ele><time>2016-11-3T23:21:32Z</time></trkpt>
<trkpt lat="46.79289" lon="6.52017"><ele></ele><time>2016-11-3T23:21:35Z</time></trkpt>
<trkpt lat="46.79299" lon="6.51999"><ele></ele><time>2016-11-3T23:21:38Z</time></trkpt>
<trkpt lat="46.79305" lon="6.51988"><ele></ele><time>2016-11-3T23:21:41Z</time></trkpt>
<trkpt lat="46.79312" lon="6.51962"><ele></ele><time>2016-11-3T23:21:44Z</time></trkpt>
<trkpt lat="46.79311" lon="6.51935"><ele></ele><time>2016-11-3T23:21:47Z</time></trkpt>
<trkpt lat="46.793" lon="6.51902"><ele></ele><time>2016-11-3T23:21:50Z</time></trkpt>
<trkpt lat="46.79276" lon="6.51894"><ele></ele><time>2016-11-3T23:21:53Z</time></trkpt>
<trkpt lat="46.79266" lon="6.51894"><ele></ele><time>2016-11-3T23:21:56Z</time></trkpt>
<trkpt lat="46.79246" lon="6.51896"><ele></ele><time>2016-11-3T23:21:59Z</time></trkpt>
<trkpt lat="46.79225" lon="6.51893"><ele></ele><time>2016-11-3T23:22:2Z</time></trkpt>
<trkpt lat="46.79205" lon="6.51887"><ele></ele><time>2016-11-3T23:22:5Z</time></trkpt>
<trkpt lat="46.79195" lon="6.51882"><ele></ele><time>2016-11-3T23:22:8Z</time></trkpt>
<trkpt lat="46.79178" lon="6.51869"><ele></ele><time>2016-11-3T23:22:11Z</time></trkpt>
<trkpt lat="46.79154" lon="6.51859"><ele></ele><time>2016-11-3T23:22:14Z</time></trkpt>
<trkpt lat="46.79139" lon="6.51868"><ele></ele><time>2016-11-3T23:22:17Z</time></trkpt>
<trkpt lat="46.79131" lon="6.51875"><ele></ele><time>2016-11-3T23:22:20Z</time></trkpt>
<trkpt lat="46.79117" lon="6.51908"><ele></ele><time>2016-11-3T23:22:23Z</time></trkpt>
<trkpt lat="46.79116" lon="6.51938"><ele></ele><time>2016-11-3T23:22:26Z</time></trkpt>
<trkpt lat="46.79115" lon="6.5197"><ele></ele><time>2016-11-3T23:22:29Z</time></trkpt>
<trkpt lat="46.79113" lon="6.52004"><ele></ele><time>2016-11-3T23:22:32Z</time></trkpt>
<trkpt lat="46.79111" lon="6.52038"><ele></ele><time>2016-11-3T23:22:35Z</time></trkpt>
<trkpt lat="46.79109" lon="6.52071"><ele></ele><time>2016-11-3T23:22:38Z</time></trkpt>
<trkpt lat="46.79106" lon="6.52101"><ele></ele><time>2016-11-3T23:22:41Z</time></trkpt>
<trkpt lat="46.79102" lon="6.52115"><ele></ele><time>2016-11-3T23:22:44Z</time></trkpt>
<trkpt lat="46.7909" lon="6.52147"><ele></ele><time>2016-11-3T23:22:47Z</time></trkpt>
<trkpt lat="46.79082" lon="6.52165"><ele></ele><time>2016-11-3T23:22:50Z</time></trkpt>
<trkpt lat="46.7907" lon="6.52195"><ele></ele><time>2016-11-3T23:22:53Z</time></trkpt>
<trkpt lat="46.79056" lon="6.52229"><ele></ele><time>2016-11-3T23:22:56Z</time></trkpt>
<trkpt lat="46.79043" lon="6.5225"><ele></ele><time>2016-11-3T23:22:59Z</time></trkpt>
<trkpt lat="46.79025" lon="6.52273"><ele></ele><time>2016-11-3T23:23:2Z</time></trkpt>
<trkpt lat="46.79021" lon="6.52278"><ele></ele><time>2016-11-3T23:23:5Z</time></trkpt>
<trkpt lat="46.79005" lon="6.52299"><ele></ele><time>2016-11-3T23:23:8Z</time></trkpt>
<trkpt lat="46.78996" lon="6.52331"><ele></ele><time>2016-11-3T23:23:11Z</time></trkpt>
<trkpt lat="46.78994" lon="6.52356"><ele></ele><time>2016-11-3T23:23:14Z</time></trkpt>
<trkpt lat="46.78994" lon="6.52368"><ele></ele><time>2016-11-3T23:23:17Z</time></trkpt>
<trkpt lat="46.78997" lon="6.52405"><ele></ele><time>2016-11-3T23:23:20Z</time></trkpt>
<trkpt lat="46.78997" lon="6.52417"><ele></ele><time>2016-11-3T23:23:23Z</time></trkpt>
<trkpt lat="46.78991" lon="6.5244"><ele></ele><time>2016-11-3T23:23:26Z</time></trkpt>
<trkpt lat="46.78981" lon="6.52473"><ele></ele><time>2016-11-3T23:23:29Z</time></trkpt>
<trkpt lat="46.78978" lon="6.52488"><ele></ele><time>2016-11-3T23:23:32Z</time></trkpt>
<trkpt lat="46.78972" lon="6.525"><ele></ele><time>2016-11-3T23:23:35Z</time></trkpt>
<trkpt lat="46.78968" lon="6.52507"><ele></ele><time>2016-11-3T23:23:38Z</time></trkpt>
<trkpt lat="46.78957" lon="6.52528"><ele></ele><time>2016-11-3T23:23:41Z</time></trkpt>
<trkpt lat="46.78955" lon="6.52532"><ele></ele><time>2016-11-3T23:23:44Z</time></trkpt>
<trkpt lat="46.78953" lon="6.52537"><ele></ele><time>2016-11-3T23:23:47Z</time></trkpt>
<trkpt lat="46.78941" lon="6.52562"><ele></ele><time>2016-11-3T23:23:50Z</time></trkpt>
<trkpt lat="46.78929" lon="6.52589"><ele></ele><time>2016-11-3T23:23:53Z</time></trkpt>
<trkpt lat="46.78919" lon="6.52609"><ele></ele><time>2016-11-3T23:23:56Z</time></trkpt>
<trkpt lat="46.78903" lon="6.52601"><ele></ele><time>2016-11-3T23:23:59Z</time></trkpt>
<trkpt lat="46.78911" lon="6.5259"><ele></ele><time>2016-11-3T23:24:2Z</time></trkpt>
<trkpt lat="46.78911" lon="6.52583"><ele></ele><time>2016-11-3T23:24:5Z</time></trkpt>
<trkpt lat="46.78911" lon="6.52583"><ele></ele><time>2016-11-3T23:24:8Z</time></trkpt>
<trkpt lat="46.78911" lon="6.52585"><ele></ele><time>2016-11-3T23:24:11Z</time></trkpt>
<trkpt lat="46.78912" lon="6.52584"><ele></ele><time>2016-11-3T23:24:14Z</time></trkpt>
<trkpt lat="46.78912" lon="6.52583"><ele></ele><time>2016-11-3T23:24:17Z</time></trkpt>
<trkpt lat="46.78912" lon="6.52583"><ele></ele><time>2016-11-3T23:24:20Z</time></trkpt>
<trkpt lat="46.78913" lon="6.52583"><ele></ele><time>2016-11-3T23:24:23Z</time></trkpt>
<trkpt lat="46.78913" lon="6.52582"><ele></ele><time>2016-11-3T23:24:26Z</time></trkpt>
</trkseg></trk></gpx>